SU1103 / VQ-BVP 7700 Squawk Report (26th of March, 2020)

Aircraft B738 Reg No. VQ-BVP Age 5 years old
Model 737 Jet engines 2 First flight 11-02-15
Registered 25-02-15 Rollout N/A Delivered 25-02-15
Construction No. 41204 Line No. 5291 Series 8LJ
ADSHEX 4243D6 Airline name Aeroflot Russian Airlines Owner Avia Capital Services
Airfield based Moscow-Sheremetyevo~Moscow~RA First tracked N/A

Flight history for VQ-BVP

Route Flight No Date Playback
Sheremetyevo (SVO) - Koltsovo (SVX) SU1404 2020-05-06 14:55:00
Khrabrovo (KGD) - Sheremetyevo (SVO) SU1007 2020-05-02 19:46:00
Sheremetyevo (SVO) - Khrabrovo (KGD) SU1006 2020-05-02 17:00:00
Surgut (SGC) - Sheremetyevo (SVO) SU1513 2020-04-26 06:25:00
Sheremetyevo (SVO) - Surgut (SGC) SU1512 2020-04-26 04:25:00
Surgut (SGC) - Sheremetyevo (SVO) SU1513 2020-04-21 06:06:00
Sheremetyevo (SVO) - Surgut (SGC) SU1512 2020-04-21 04:01:00
Orenburg (REN) - Sheremetyevo (SVO) SU1249 2020-04-09 17:54:00
Sheremetyevo (SVO) - Orenburg (REN) SU1248 2020-04-09 14:02:00
Pulkovo (LED) - Sheremetyevo (SVO) SU31 2020-04-09 06:33:00
Sheremetyevo (SVO) - Pulkovo (LED) SU30 2020-04-08 18:27:00
Orenburg (REN) - Sheremetyevo (SVO) SU1249 2020-04-06 17:35:00
Sheremetyevo (SVO) - Orenburg (REN) SU1248 2020-04-06 13:57:00
Sochi (AER) - Sheremetyevo (SVO) SU1139 2020-04-06 12:29:00
Sheremetyevo (SVO) - Sochi (AER) SU1138 2020-04-06 08:24:00
Mineralnyye Vody (MRV) - Sheremetyevo (SVO) SU1311 2020-04-05 15:48:00
Sheremetyevo (SVO) - Mineralnyye Vody (MRV) SU1310 2020-04-05 11:49:00
Tomsk Bogashevo Airport (TOF) - Sheremetyevo (SVO) SU1537 2020-04-05 08:10:00
Sheremetyevo (SVO) - Tomsk Bogashevo Airport (TOF) SU1536 2020-04-05 04:16:00
Pulkovo (LED) - Sheremetyevo (SVO) SU19 2020-04-04 23:00:00
Time Lat Lon Altitude Heading Speed Vertical Rate
2020-03-26 13:09:37 GMT 55.979588 37.416313 0 75 0 0
2020-03-26 13:09:27 GMT 55.979576 37.416229 0 75 2 0
2020-03-26 13:09:23 GMT 55.979565 37.416168 0 75 3 0
2020-03-26 13:09:08 GMT 55.979496 37.415688 0 75 7 0
2020-03-26 13:09:01 GMT 55.979462 37.415337 0 73 8 0
2020-03-26 13:08:50 GMT 55.979301 37.414753 0 19 6 0
2020-03-26 13:08:43 GMT 55.979141 37.414669 0 345 9 0
2020-03-26 13:08:33 GMT 55.978489 37.414959 0 343 19 0
2020-03-26 13:08:21 GMT 55.977589 37.415379 0 343 17 0
2020-03-26 13:08:09 GMT 55.976822 37.415764 0 343 13 0
2020-03-26 13:08:01 GMT 55.976425 37.415936 0 348 10 0
2020-03-26 13:07:52 GMT 55.975994 37.415916 0 45 9 0
2020-03-26 13:07:41 GMT 55.975777 37.415066 0 73 17 0
2020-03-26 13:07:31 GMT 55.975563 37.413639 0 75 19 0
2020-03-26 13:07:17 GMT 55.975296 37.411797 0 75 14 0
2020-03-26 13:07:10 GMT 55.975155 37.410957 0 75 11 0
2020-03-26 13:06:59 GMT 55.975056 37.410259 0 73 8 0
2020-03-26 13:06:48 GMT 55.974941 37.409508 0 73 9 0
2020-03-26 13:06:32 GMT 55.974773 37.408382 0 73 10 0
2020-03-26 13:06:26 GMT 55.974701 37.407867 0 75 10 0
2020-03-26 13:06:16 GMT 55.974609 37.407242 0 73 9 0
2020-03-26 13:06:06 GMT 55.974503 37.406559 0 75 9 0
2020-03-26 13:05:56 GMT 55.974388 37.405766 0 75 11 0
2020-03-26 13:05:49 GMT 55.974293 37.405163 0 75 11 0
2020-03-26 13:05:27 GMT 55.974049 37.403469 0 73 10 0
2020-03-26 13:05:16 GMT 55.973911 37.402641 0 75 10 0
2020-03-26 13:05:08 GMT 55.973831 37.402020 0 73 9 0
2020-03-26 13:04:41 GMT 55.973583 37.400402 0 75 8 0
2020-03-26 13:04:33 GMT 55.973499 37.399834 0 75 10 0
2020-03-26 13:04:24 GMT 55.973396 37.399136 0 75 10 0
2020-03-26 13:04:15 GMT 55.973293 37.398449 0 75 10 0
2020-03-26 13:04:01 GMT 55.973145 37.397461 0 75 10 0
2020-03-26 13:03:50 GMT 55.973015 37.396561 0 73 14 0
2020-03-26 13:03:45 GMT 55.972935 37.396004 0 75 15 0
2020-03-26 13:03:30 GMT 55.972618 37.393883 0 75 24 0
2020-03-26 13:03:25 GMT 55.972469 37.392902 0 75 25 0
2020-03-26 13:03:15 GMT 55.972160 37.390823 0 75 25 0
2020-03-26 13:03:04 GMT 55.971863 37.388847 0 73 24 0
2020-03-26 13:02:44 GMT 55.971348 37.385475 0 73 17 0
2020-03-26 13:02:31 GMT 55.971096 37.383728 0 75 17 0
2020-03-26 13:02:23 GMT 55.970959 37.382751 0 78 17 0
2020-03-26 13:02:12 GMT 55.970875 37.381260 0 84 17 0
2020-03-26 13:01:48 GMT 55.970821 37.378338 0 115 18 0
2020-03-26 13:01:41 GMT 55.971085 37.377361 0 115 28 0
2020-03-26 13:01:26 GMT 55.972012 37.374092 0 115 31 0
2020-03-26 13:01:05 GMT 55.973396 37.369183 0 115 30 0
2020-03-26 13:00:58 GMT 55.973759 37.367893 0 115 29 0
2020-03-26 13:00:47 GMT 55.974377 37.365726 0 120 28 0
2020-03-26 13:00:40 GMT 55.974987 37.364460 0 137 28 0
2020-03-26 13:00:31 GMT 55.976154 37.363323 0 163 29 0
2020-03-26 13:00:19 GMT 55.977516 37.362671 0 165 30 0
2020-03-26 13:00:05 GMT 55.979382 37.361797 0 165 27 0
2020-03-26 12:59:59 GMT 55.980045 37.361477 0 165 26 0
2020-03-26 12:59:50 GMT 55.981136 37.360962 0 165 24 0
2020-03-26 12:59:38 GMT 55.982265 37.360424 0 165 21 0
2020-03-26 12:59:23 GMT 55.983421 37.359863 0 154 13 0
2020-03-26 12:59:15 GMT 55.983730 37.359406 0 90 13 0
2020-03-26 12:59:08 GMT 55.983616 37.358406 0 73 22 0
2020-03-26 12:58:58 GMT 55.983341 37.356575 0 73 29 0
2020-03-26 12:58:47 GMT 55.982986 37.354202 0 73 27 0
2020-03-26 12:58:37 GMT 55.982674 37.352142 0 73 24 0
2020-03-26 12:58:26 GMT 55.982384 37.350212 0 73 20 0
2020-03-26 12:58:14 GMT 55.982140 37.348564 0 73 14 0
2020-03-26 12:58:07 GMT 55.982033 37.347786 0 90 11 0
2020-03-26 12:57:53 GMT 55.982487 37.347034 0 208 13 0
2020-03-26 12:57:46 GMT 55.982780 37.347443 0 225 24 0
2020-03-26 12:57:33 GMT 55.983803 37.349525 0 236 29 0
2020-03-26 12:57:25 GMT 55.984325 37.351391 0 253 35 0
2020-03-26 12:57:13 GMT 55.985138 37.356762 0 255 88 0
2020-03-26 12:56:55 GMT 55.987610 37.373158 100 255 130 -64
2020-03-26 12:56:48 GMT 55.988796 37.380810 175 256 135 -704
2020-03-26 12:56:45 GMT 55.989349 37.384644 225 256 132 -576
2020-03-26 12:56:34 GMT 55.991169 37.396687 350 255 130 -704
2020-03-26 12:56:28 GMT 55.992100 37.403126 425 256 131 -768
2020-03-26 12:56:19 GMT 55.993286 37.411194 525 255 133 -640
2020-03-26 12:56:16 GMT 55.993835 37.414604 550 255 133 -704
2020-03-26 12:56:11 GMT 55.994659 37.420265 650 256 135 -832
2020-03-26 12:56:05 GMT 55.995621 37.426590 700 256 135 -704
2020-03-26 12:55:59 GMT 55.996628 37.433334 775 255 134 -832
2020-03-26 12:55:56 GMT 55.997040 37.436245 800 255 134 -704
2020-03-26 12:55:53 GMT 55.997498 37.439159 875 256 133 -576
2020-03-26 12:55:49 GMT 55.998104 37.443295 875 256 132 -704
2020-03-26 12:55:46 GMT 55.998642 37.446732 900 255 133 -704
2020-03-26 12:55:40 GMT 55.999603 37.453224 1,000 255 134 -832
2020-03-26 12:55:37 GMT 56.000248 37.457458 1,050 255 132 -640
2020-03-26 12:55:29 GMT 56.001457 37.465439 1,125 256 132 -704
2020-03-26 12:55:24 GMT 56.002342 37.471359 1,150 256 132 -640
2020-03-26 12:55:20 GMT 56.002945 37.475613 1,250 255 134 -768
2020-03-26 12:55:16 GMT 56.003448 37.479195 1,275 256 135 -640
2020-03-26 12:55:11 GMT 56.004410 37.485600 1,350 256 137 -704
2020-03-26 12:55:06 GMT 56.005089 37.490070 1,400 256 133 -576
2020-03-26 12:55:02 GMT 56.005646 37.494106 1,450 256 133 -640
2020-03-26 12:54:55 GMT 56.007648 37.507408 1,550 255 134 -768
2020-03-26 12:54:50 GMT 56.007648 37.507408 1,825 256 137 -704
2020-03-26 12:54:45 GMT 56.008301 37.511959 1,825 256 136 -768
2020-03-26 12:54:40 GMT 56.009186 37.517624 1,725 256 138 -768
2020-03-26 12:54:35 GMT 56.009975 37.523117 1,800 256 138 -832
2020-03-26 12:54:32 GMT 56.010406 37.526051 1,825 256 138 -1024
2020-03-26 12:54:29 GMT 56.011002 37.530045 1,900 256 137 -704
2020-03-26 12:54:20 GMT 56.012535 37.540455 2,000 255 142 -704
2020-03-26 12:54:12 GMT 56.014072 37.550583 2,125 256 151 -832
2020-03-26 12:54:09 GMT 56.014355 37.552643 2,125 256 151 -832
2020-03-26 12:54:05 GMT 56.015167 37.558510 2,250 256 154 -1024
2020-03-26 12:54:01 GMT 56.015945 37.563671 2,275 255 156 -896
2020-03-26 12:53:56 GMT 56.016682 37.568691 2,325 255 158 -704
2020-03-26 12:53:52 GMT 56.017330 37.572727 2,350 255 159 -832
2020-03-26 12:53:49 GMT 56.018143 37.578072 2,425 256 160 -768
2020-03-26 12:53:44 GMT 56.018867 37.583454 2,475 256 160 -768
2020-03-26 12:53:41 GMT 56.019474 37.587318 2,525 256 161 -768
2020-03-26 12:53:38 GMT 56.020065 37.591553 2,575 256 162 -832
2020-03-26 12:53:32 GMT 56.021194 37.599335 2,675 256 163 -896
2020-03-26 12:53:29 GMT 56.021942 37.604538 2,725 256 164 -832
2020-03-26 12:53:24 GMT 56.022873 37.610580 2,775 256 164 -832
2020-03-26 12:53:18 GMT 56.023849 37.617016 2,825 256 163 -1024
2020-03-26 12:53:13 GMT 56.024826 37.623512 2,950 255 161 -1024
2020-03-26 12:53:09 GMT 56.025604 37.628506 3,000 255 159 -832
2020-03-26 12:53:02 GMT 56.027069 37.638660 3,075 256 156 -384
2020-03-26 12:52:57 GMT 56.027939 37.644569 3,100 256 156 -256
2020-03-26 12:52:53 GMT 56.028645 37.649632 3,125 256 155 -64
2020-03-26 12:52:48 GMT 56.029388 37.654438 3,125 261 159 0
2020-03-26 12:52:41 GMT 56.030685 37.664047 3,125 256 158 0
2020-03-26 12:52:38 GMT 56.031345 37.668774 3,125 255 159 192
2020-03-26 12:52:27 GMT 56.033432 37.682358 3,100 258 158 0
2020-03-26 12:52:21 GMT 56.034184 37.689114 3,100 262 159 0
2020-03-26 12:52:18 GMT 56.035309 37.702084 3,100 262 159 -128
2020-03-26 12:52:11 GMT 56.035309 37.702084 3,125 261 160 -512
2020-03-26 12:52:07 GMT 56.035812 37.707157 3,175 260 160 -448
2020-03-26 12:51:58 GMT 56.037117 37.720097 3,250 260 156 -448
2020-03-26 12:51:53 GMT 56.037769 37.726707 3,300 262 153 -640
2020-03-26 12:51:50 GMT 56.038055 37.729965 3,350 262 152 -640
2020-03-26 12:51:47 GMT 56.038376 37.733543 3,375 262 153 -704
2020-03-26 12:51:39 GMT 56.039165 37.742928 3,450 261 157 -704
2020-03-26 12:51:36 GMT 56.039658 37.748276 3,500 261 158 -576
2020-03-26 12:51:30 GMT 56.040421 37.755718 3,550 261 161 -576
2020-03-26 12:51:27 GMT 56.040749 37.759068 3,600 260 165 -384
2020-03-26 12:51:17 GMT 56.042099 37.773144 3,650 261 168 -384
2020-03-26 12:51:08 GMT 56.043228 37.784897 3,725 260 174 -512
2020-03-26 12:51:05 GMT 56.044556 37.798378 3,800 261 176 -512
2020-03-26 12:50:58 GMT 56.044556 37.798378 3,850 260 182 -832
2020-03-26 12:50:54 GMT 56.045311 37.805672 3,875 260 181 -960
2020-03-26 12:50:47 GMT 56.046249 37.814857 3,925 261 183 -448
2020-03-26 12:50:44 GMT 56.046707 37.820004 4,775 263 202 -1664
2020-03-26 12:50:38 GMT 56.047440 37.828426 4,150 262 188 -1344
2020-03-26 12:50:27 GMT 56.048943 37.845924 4,325 261 192 -1408
2020-03-26 12:50:23 GMT 56.049595 37.853134 4,450 262 195 -1408
2020-03-26 12:50:17 GMT 56.050278 37.861301 4,550 262 199 -1408
2020-03-26 12:50:11 GMT 56.051651 37.878361 4,725 263 201 -1600
2020-03-26 12:50:07 GMT 56.051651 37.878361 4,800 263 202 -1664
2020-03-26 12:50:04 GMT 56.051971 37.882858 4,875 263 204 -1728
2020-03-26 12:50:01 GMT 56.052479 37.889442 5,000 263 205 -1792
2020-03-26 12:49:55 GMT 56.053223 37.899227 5,175 263 207 -1792
2020-03-26 12:49:50 GMT 56.053757 37.906242 5,300 263 208 -1984
2020-03-26 12:49:47 GMT 56.054108 37.911327 5,400 263 210 -1984
2020-03-26 12:49:41 GMT 56.055134 37.923862 5,575 261 217 -1536
2020-03-26 12:49:37 GMT 56.055588 37.929214 5,675 260 218 -1600
2020-03-26 12:49:32 GMT 56.056480 37.937508 5,800 257 222 -1664
2020-03-26 12:49:27 GMT 56.057785 37.946949 6,225 255 232 -1984
2020-03-26 12:49:22 GMT 56.059692 37.957336 6,150 253 230 -1984
2020-03-26 12:49:19 GMT 56.060532 37.962009 6,225 254 232 -1984
2020-03-26 12:49:14 GMT 56.061951 37.971249 6,400 257 233 -2176
2020-03-26 12:49:07 GMT 56.064442 37.990978 6,825 264 231 -2432
2020-03-26 12:49:03 GMT 56.064442 37.990978 6,825 264 231 -2432
2020-03-26 12:48:59 GMT 56.064743 38.010197 7,025 273 230 -1984
2020-03-26 12:48:53 GMT 56.064743 38.010197 7,150 287 229 -1600
2020-03-26 12:48:49 GMT 56.063553 38.018272 7,300 298 228 -2560
2020-03-26 12:48:44 GMT 56.060623 38.027428 7,575 311 227 -2816
2020-03-26 12:48:40 GMT 56.058884 38.031174 7,675 329 228 -2816
2020-03-26 12:48:36 GMT 56.055267 38.036831 7,900 334 229 -2880
2020-03-26 12:48:33 GMT 56.052105 38.039989 8,075 339 229 -2816
2020-03-26 12:48:30 GMT 56.049133 38.042160 8,200 348 232 -2368
2020-03-26 12:48:22 GMT 56.041214 38.044491 8,400 3 241 -1088
2020-03-26 12:48:17 GMT 56.035858 38.043854 8,550 10 261 -1088
2020-03-26 12:48:11 GMT 56.029999 38.042076 8,650 10 246 -1472
2020-03-26 12:48:08 GMT 56.025513 38.040661 9,025 10 261 -1088
2020-03-26 12:48:05 GMT 56.022640 38.039818 8,775 10 250 -896
2020-03-26 12:48:02 GMT 56.013062 38.036751 9,000 10 273 -1280
2020-03-26 12:47:57 GMT 56.013062 38.036751 8,925 10 255 -1088
2020-03-26 12:47:52 GMT 56.005974 38.034496 9,025 10 264 -1088
2020-03-26 12:47:46 GMT 56.000839 38.032837 9,100 10 264 -1152
2020-03-26 12:47:41 GMT 55.994568 38.030922 9,200 10 268 -1280
2020-03-26 12:47:38 GMT 55.989944 38.029423 9,300 10 271 -1280
2020-03-26 12:47:31 GMT 55.981953 38.026855 9,425 10 275 -1216
2020-03-26 12:47:28 GMT 55.976181 38.024883 9,600 10 287 -1472
2020-03-26 12:47:24 GMT 55.972229 38.023598 9,600 10 283 -1408
2020-03-26 12:47:20 GMT 55.968750 38.022434 9,650 10 283 -1408
2020-03-26 12:47:15 GMT 55.961468 38.019993 9,800 10 287 -1472
2020-03-26 12:47:11 GMT 55.955322 38.017933 9,900 10 293 -1472
2020-03-26 12:47:05 GMT 55.947968 38.015610 10,050 10 295 -1472
2020-03-26 12:47:00 GMT 55.941925 38.013611 10,150 10 298 -1536
2020-03-26 12:46:55 GMT 55.934555 38.011196 10,325 10 305 -1600
2020-03-26 12:46:52 GMT 55.930298 38.009781 10,325 10 305 -1600
2020-03-26 12:46:49 GMT 55.927505 38.008865 10,450 10 308 -1664
2020-03-26 12:46:45 GMT 55.919952 38.006371 10,600 10 312 -1728
2020-03-26 12:46:41 GMT 55.915009 38.004704 10,700 10 315 -1792
2020-03-26 12:46:35 GMT 55.906303 38.001965 10,850 10 319 -1920
2020-03-26 12:46:29 GMT 55.896996 37.998962 11,150 10 326 -1920
2020-03-26 12:46:26 GMT 55.892246 37.997501 11,150 10 326 -1920
2020-03-26 12:46:22 GMT 55.886147 37.995529 11,350 9 330 -1984
2020-03-26 12:46:19 GMT 55.883167 37.994671 11,400 9 331 -1984
2020-03-26 12:46:16 GMT 55.877117 37.992783 11,575 9 337 -1984
2020-03-26 12:46:12 GMT 55.872833 37.991493 11,625 10 341 -1984
2020-03-26 12:46:08 GMT 55.865662 37.989223 11,725 10 342 -1984
2020-03-26 12:46:04 GMT 55.858543 37.986946 11,950 10 348 -2112
2020-03-26 12:46:00 GMT 55.853653 37.985401 12,050 10 351 -2112
2020-03-26 12:45:56 GMT 55.845566 37.982815 12,225 10 358 -2176
2020-03-26 12:45:52 GMT 55.840897 37.981236 12,400 10 360 -2304
2020-03-26 12:45:49 GMT 55.835266 37.979393 12,475 10 362 -2432
2020-03-26 12:45:46 GMT 55.830845 37.977936 12,675 10 367 -2048
2020-03-26 12:45:42 GMT 55.824558 37.975876 12,725 10 369 -1920
2020-03-26 12:45:38 GMT 55.812515 37.971912 12,900 10 375 -2176
2020-03-26 12:45:35 GMT 55.812515 37.971912 12,975 10 375 -2304
2020-03-26 12:45:32 GMT 55.807571 37.970329 13,050 10 376 -2688
2020-03-26 12:45:28 GMT 55.800491 37.968063 13,225 10 377 -2624
2020-03-26 12:45:22 GMT 55.789181 37.964375 13,500 10 380 -2560
2020-03-26 12:45:19 GMT 55.784664 37.962914 13,650 10 382 -2432
2020-03-26 12:45:15 GMT 55.777313 37.960594 13,775 10 383 -2560
2020-03-26 12:45:11 GMT 55.770859 37.958511 14,025 10 394 -3008
2020-03-26 12:45:08 GMT 55.764725 37.956596 14,100 10 386 -2560
2020-03-26 12:45:04 GMT 55.759060 37.954762 14,375 10 389 -2560
2020-03-26 12:45:01 GMT 55.754452 37.953384 14,350 10 390 -2560
2020-03-26 12:44:57 GMT 55.747467 37.951103 14,700 10 391 -3264
2020-03-26 12:44:54 GMT 55.740372 37.948856 14,700 10 391 -3328
2020-03-26 12:44:50 GMT 55.733963 37.946861 14,900 10 391 -3392
2020-03-26 12:44:47 GMT 55.728790 37.945194 15,075 10 391 -3456
2020-03-26 12:44:44 GMT 55.722515 37.943172 15,850 10 391 -3328
2020-03-26 12:44:41 GMT 55.718048 37.941711 15,425 10 391 -3328
2020-03-26 12:44:37 GMT 55.710846 37.939453 15,650 10 391 -3456
2020-03-26 12:44:34 GMT 55.705856 37.937790 15,800 10 391 -3712
2020-03-26 12:44:31 GMT 55.698944 37.935623 16,150 10 391 -3456
2020-03-26 12:44:27 GMT 55.692398 37.933460 16,275 10 391 -3200
2020-03-26 12:44:23 GMT 55.685696 37.931244 16,475 10 392 -3136
2020-03-26 12:44:20 GMT 55.681000 37.929714 16,500 10 392 -3136
2020-03-26 12:44:16 GMT 55.674290 37.927551 17,125 10 391 -3712
2020-03-26 12:44:13 GMT 55.667999 37.925552 16,975 10 391 -3776
2020-03-26 12:44:10 GMT 55.660721 37.923222 17,300 10 391 -3456
2020-03-26 12:44:04 GMT 55.652390 37.920559 17,550 10 392 -2944
2020-03-26 12:44:01 GMT 55.647766 37.919144 18,050 10 393 -2944
2020-03-26 12:43:58 GMT 55.641312 37.917065 17,900 10 393 -2944
2020-03-26 12:43:53 GMT 55.631413 37.913902 18,150 10 395 -3008
2020-03-26 12:43:48 GMT 55.621361 37.910812 18,425 9 395 -3200
2020-03-26 12:43:45 GMT 55.617912 37.909698 18,525 9 395 -3264
2020-03-26 12:43:42 GMT 55.612610 37.908077 18,850 9 398 -2880
2020-03-26 12:43:39 GMT 55.606045 37.906094 18,875 9 398 -2816
2020-03-26 12:43:35 GMT 55.600597 37.904377 19,000 9 399 -2688
2020-03-26 12:43:32 GMT 55.594452 37.902489 19,175 10 399 -3072
2020-03-26 12:43:28 GMT 55.579926 37.897854 19,500 10 400 -3264
2020-03-26 12:43:25 GMT 55.579926 37.897854 19,550 10 400 -3264
2020-03-26 12:43:22 GMT 55.574707 37.896255 19,750 8 401 -2688
2020-03-26 12:43:19 GMT 55.569500 37.894852 19,875 6 402 -2432
2020-03-26 12:43:14 GMT 55.562843 37.893391 20,275 4 403 -2560
2020-03-26 12:43:11 GMT 55.556187 37.892448 20,175 2 404 -2752
2020-03-26 12:43:08 GMT 55.551407 37.892014 20,325 0 405 -2752
2020-03-26 12:43:05 GMT 55.544407 37.891762 20,475 0 405 -2816
2020-03-26 12:43:01 GMT 55.536621 37.892014 20,675 356 406 -2944
2020-03-26 12:42:57 GMT 55.524715 37.893562 20,950 354 406 -3136
2020-03-26 12:42:54 GMT 55.524715 37.893562 21,075 352 406 -3264
2020-03-26 12:42:51 GMT 55.519131 37.894852 21,150 351 405 -3328
2020-03-26 12:42:47 GMT 55.511993 37.897007 21,950 328 403 -3648
2020-03-26 12:42:44 GMT 55.506187 37.898972 21,825 343 406 -2944
2020-03-26 12:42:41 GMT 55.500927 37.901199 21,700 345 406 -3072
2020-03-26 12:42:37 GMT 55.493668 37.904633 22,375 332 402 -3840
2020-03-26 12:42:34 GMT 55.489151 37.907410 22,100 337 404 -3328
2020-03-26 12:42:31 GMT 55.483147 37.911674 22,225 333 404 -3712
2020-03-26 12:42:27 GMT 55.475697 37.918453 22,525 329 403 -3840
2020-03-26 12:42:24 GMT 55.470200 37.924389 22,725 328 403 -3456
2020-03-26 12:42:20 GMT 55.464706 37.930630 22,800 327 403 -3328
2020-03-26 12:42:17 GMT 55.459171 37.936993 23,100 327 405 -2752
2020-03-26 12:42:14 GMT 55.456467 37.940201 23,175 327 405 -2624
2020-03-26 12:42:11 GMT 55.447300 37.950726 23,850 327 409 -2688
2020-03-26 12:42:04 GMT 55.439987 37.959217 23,650 327 409 -2688
2020-03-26 12:42:01 GMT 55.432846 37.967377 23,825 327 409 -2688
2020-03-26 12:41:56 GMT 55.426956 37.974243 24,350 327 414 -2560
2020-03-26 12:41:53 GMT 55.421310 37.980785 24,125 327 412 -2368
2020-03-26 12:41:49 GMT 55.415691 37.987309 24,250 327 414 -2560
2020-03-26 12:41:45 GMT 55.410004 37.993874 24,425 327 415 -2560
2020-03-26 12:41:41 GMT 55.404099 38.000740 24,575 327 416 -2560
2020-03-26 12:41:35 GMT 55.393158 38.013420 24,850 327 426 -2304
2020-03-26 12:41:32 GMT 55.389065 38.018188 24,900 327 418 -2368
2020-03-26 12:41:29 GMT 55.383820 38.024246 25,000 327 420 -2304
2020-03-26 12:41:26 GMT 55.379242 38.029499 25,225 327 423 -2176
2020-03-26 12:41:22 GMT 55.372925 38.036850 25,500 327 426 -2176
2020-03-26 12:41:19 GMT 55.368668 38.041779 25,375 327 425 -2176
2020-03-26 12:41:15 GMT 55.361252 38.050339 25,600 327 428 -2432
2020-03-26 12:41:12 GMT 55.355919 38.056557 25,700 327 428 -2496
2020-03-26 12:41:09 GMT 55.351044 38.062214 25,775 327 429 -2496
2020-03-26 12:41:03 GMT 55.340744 38.074089 26,275 327 436 -2304
2020-03-26 12:41:00 GMT 55.334782 38.081028 26,200 327 435 -2240
2020-03-26 12:40:56 GMT 55.328339 38.088470 26,650 327 440 -2496
2020-03-26 12:40:52 GMT 55.321564 38.096226 26,575 327 440 -2496
2020-03-26 12:40:45 GMT 55.310760 38.108578 26,775 327 442 -2304
2020-03-26 12:40:41 GMT 55.302197 38.118397 26,950 327 445 -2240
2020-03-26 12:40:38 GMT 55.298939 38.122143 27,025 327 446 -2304
2020-03-26 12:40:35 GMT 55.293583 38.128220 27,150 327 447 -2560
2020-03-26 12:40:29 GMT 55.283295 38.140007 27,425 327 448 -3008
2020-03-26 12:40:24 GMT 55.276268 38.148026 27,925 328 450 -2496
2020-03-26 12:40:19 GMT 55.265980 38.159763 27,875 328 450 -2432
2020-03-26 12:40:14 GMT 55.258255 38.168522 28,000 328 450 -2496
2020-03-26 12:40:11 GMT 55.252945 38.174576 28,125 328 450 -2432
2020-03-26 12:40:08 GMT 55.244705 38.183899 28,375 328 450 -2432
2020-03-26 12:40:05 GMT 55.239944 38.189365 28,500 328 450 -2432
2020-03-26 12:40:01 GMT 55.233490 38.196636 28,675 328 449 -2432
2020-03-26 12:39:57 GMT 55.229061 38.201626 28,750 328 449 -2432
2020-03-26 12:39:54 GMT 55.215912 38.216507 29,025 328 448 -2496
2020-03-26 12:39:51 GMT 55.215912 38.216507 29,075 328 446 -2432
2020-03-26 12:39:48 GMT 55.211060 38.222000 29,175 328 446 -2432
2020-03-26 12:39:44 GMT 55.204948 38.228928 29,300 328 445 -2432
2020-03-26 12:39:38 GMT 55.194351 38.240906 29,525 327 443 -2496
2020-03-26 12:39:34 GMT 55.188171 38.248013 29,700 327 442 -2496
2020-03-26 12:39:31 GMT 55.182861 38.254070 29,825 328 443 -2432
2020-03-26 12:39:28 GMT 55.176273 38.261471 29,975 329 442 -2304
2020-03-26 12:39:24 GMT 55.169220 38.269016 30,125 331 442 -2048
2020-03-26 12:39:19 GMT 55.161190 38.277115 30,275 332 442 -2048
2020-03-26 12:39:16 GMT 55.157093 38.281029 30,425 333 440 -2048
2020-03-26 12:39:13 GMT 55.151779 38.285900 30,425 333 440 -2048
2020-03-26 12:39:08 GMT 55.140568 38.295509 30,650 336 439 -1728
2020-03-26 12:39:03 GMT 55.133652 38.301006 30,750 337 439 -1280
2020-03-26 12:38:59 GMT 55.125156 38.307243 30,825 339 438 -960
2020-03-26 12:38:56 GMT 55.118549 38.311741 30,900 339 435 -960
2020-03-26 12:38:53 GMT 55.111725 38.316353 30,950 339 435 -960
2020-03-26 12:38:47 GMT 55.103668 38.321846 31,125 339 428 -64
2020-03-26 12:38:44 GMT 55.097900 38.325726 31,075 339 431 -448
2020-03-26 12:38:41 GMT 55.093128 38.328968 31,100 339 430 -192
2020-03-26 12:38:37 GMT 55.084473 38.334793 31,125 339 428 -64
2020-03-26 12:38:34 GMT 55.070801 38.344063 31,125 339 425 -64
2020-03-26 12:38:30 GMT 55.070801 38.344063 31,125 339 427 -64
2020-03-26 12:38:26 GMT 55.064392 38.348427 31,125 339 426 -64
2020-03-26 12:38:21 GMT 55.048393 38.359097 31,175 339 437 -384
2020-03-26 12:38:15 GMT 55.044670 38.361595 31,300 339 442 -2048
2020-03-26 12:38:10 GMT 55.031635 38.370335 31,200 339 440 -1216
2020-03-26 12:38:07 GMT 55.027073 38.373413 31,350 339 443 -2176
2020-03-26 12:38:02 GMT 55.019253 38.378738 31,550 339 444 -2368
2020-03-26 12:37:59 GMT 55.013340 38.382736 31,600 339 445 -2304
2020-03-26 12:37:56 GMT 55.009521 38.385315 31,675 339 445 -2304
2020-03-26 12:37:53 GMT 55.001953 38.390511 32,125 339 447 -2304
2020-03-26 12:37:50 GMT 54.997047 38.393803 32,325 339 451 -2496
2020-03-26 12:37:45 GMT 54.988201 38.399879 32,100 339 449 -2304
2020-03-26 12:37:41 GMT 54.976730 38.407719 32,325 339 450 -2368
2020-03-26 12:37:36 GMT 54.968216 38.413616 32,500 339 451 -2496
2020-03-26 12:37:31 GMT 54.959106 38.419914 32,700 339 452 -2688
2020-03-26 12:37:28 GMT 54.953426 38.423851 32,925 339 452 -2368
2020-03-26 12:37:25 GMT 54.938782 38.434135 33,125 339 454 -1280
2020-03-26 12:37:20 GMT 54.938782 38.434135 33,125 339 454 -1408
2020-03-26 12:37:17 GMT 54.932060 38.438831 33,175 339 454 -1280
2020-03-26 12:37:13 GMT 54.924957 38.443748 33,225 339 454 -1152
2020-03-26 12:37:10 GMT 54.918182 38.448513 33,300 338 453 -1024
2020-03-26 12:37:07 GMT 54.907993 38.455727 33,375 338 453 -1024
2020-03-26 12:37:04 GMT 54.907993 38.455727 33,400 338 453 -1024
2020-03-26 12:37:00 GMT 54.899963 38.461357 33,450 338 453 -1024
2020-03-26 12:36:57 GMT 54.895191 38.464634 33,575 339 453 -1024
2020-03-26 12:36:53 GMT 54.886002 38.471050 33,550 339 453 -1024
2020-03-26 12:36:50 GMT 54.878105 38.476536 33,650 339 453 -1024
2020-03-26 12:36:47 GMT 54.875107 38.478565 33,725 339 454 -1024
2020-03-26 12:36:43 GMT 54.858646 38.489769 33,800 339 454 -1024
2020-03-26 12:36:39 GMT 54.858646 38.489769 33,825 339 454 -1024
2020-03-26 12:36:35 GMT 54.851532 38.494640 33,975 339 454 -960
2020-03-26 12:36:32 GMT 54.843426 38.500088 33,975 339 454 -960
2020-03-26 12:36:27 GMT 54.835327 38.505627 33,975 339 454 -512
2020-03-26 12:36:24 GMT 54.829651 38.509422 34,000 339 454 -64
2020-03-26 12:36:21 GMT 54.823792 38.513382 34,000 339 454 0
2020-03-26 12:36:17 GMT 54.815865 38.518730 34,000 339 454 0
2020-03-26 12:36:14 GMT 54.810230 38.522560 34,000 339 454 0
2020-03-26 12:36:11 GMT 54.803204 38.527306 34,000 339 454 0
2020-03-26 12:36:08 GMT 54.796280 38.531960 34,000 339 454 0
2020-03-26 12:36:04 GMT 54.790421 38.535919 34,000 339 454 0
2020-03-26 12:35:59 GMT 54.770096 38.549652 34,000 339 454 0
2020-03-26 12:35:54 GMT 54.770096 38.549652 34,000 339 454 0
2020-03-26 12:35:50 GMT 54.761673 38.555305 34,000 339 454 0
2020-03-26 12:35:47 GMT 54.756638 38.558701 34,000 339 454 0
2020-03-26 12:35:44 GMT 54.751556 38.562092 34,000 339 454 0
2020-03-26 12:35:41 GMT 54.745384 38.566257 34,000 339 454 0
2020-03-26 12:35:36 GMT 54.735424 38.572914 34,000 339 454 0
2020-03-26 12:35:33 GMT 54.729858 38.576714 34,000 339 454 0
2020-03-26 12:35:29 GMT 54.714981 38.586651 34,000 339 454 0
2020-03-26 12:35:26 GMT 54.714981 38.586651 34,000 339 454 0
2020-03-26 12:35:22 GMT 54.709026 38.590725 34,000 339 454 0
2020-03-26 12:35:19 GMT 54.703262 38.594566 34,000 339 454 0
2020-03-26 12:35:16 GMT 54.695068 38.600140 34,000 339 454 0
2020-03-26 12:35:13 GMT 54.690399 38.603291 34,000 339 454 0
2020-03-26 12:35:08 GMT 54.679699 38.610451 34,000 339 454 0
2020-03-26 12:35:05 GMT 54.673553 38.614601 34,000 339 454 0
2020-03-26 12:35:02 GMT 54.669662 38.617188 34,000 339 454 0
2020-03-26 12:34:59 GMT 54.664291 38.620853 34,000 339 454 0
2020-03-26 12:34:55 GMT 54.655426 38.626801 34,000 339 454 0
2020-03-26 12:34:52 GMT 54.650299 38.630192 34,000 339 454 0
2020-03-26 12:34:47 GMT 54.639175 38.637703 34,000 339 454 0
2020-03-26 12:34:42 GMT 54.630306 38.643661 34,000 339 454 0
2020-03-26 12:34:39 GMT 54.625534 38.646832 34,000 339 454 0
2020-03-26 12:34:35 GMT 54.618301 38.651680 34,000 339 454 0
2020-03-26 12:34:32 GMT 54.608917 38.657982 34,000 339 454 0
2020-03-26 12:34:28 GMT 54.602875 38.662022 34,000 339 454 0
2020-03-26 12:34:24 GMT 54.594742 38.667465 34,000 339 454 0
2020-03-26 12:34:21 GMT 54.589371 38.671066 34,000 339 454 0
2020-03-26 12:34:18 GMT 54.582638 38.675537 34,000 339 454 0
2020-03-26 12:34:15 GMT 54.577835 38.678741 34,000 339 454 0
2020-03-26 12:34:12 GMT 54.571976 38.682701 34,000 339 454 0
2020-03-26 12:34:09 GMT 54.566208 38.686523 34,000 339 454 0
2020-03-26 12:34:05 GMT 54.557510 38.692394 34,000 339 454 0
2020-03-26 12:34:00 GMT 54.549400 38.697758 34,000 339 454 0
2020-03-26 12:33:56 GMT 54.541672 38.702976 34,000 339 454 0
2020-03-26 12:33:51 GMT 54.530136 38.710651 34,000 339 454 0
2020-03-26 12:33:47 GMT 54.524357 38.714489 34,000 339 454 0
2020-03-26 12:33:44 GMT 54.516220 38.719860 34,000 339 454 0
2020-03-26 12:33:40 GMT 54.509274 38.724476 34,000 339 454 0
2020-03-26 12:33:37 GMT 54.503311 38.728420 34,000 339 454 0
2020-03-26 12:33:31 GMT 54.491444 38.736294 34,000 339 454 0
2020-03-26 12:33:28 GMT 54.485504 38.740295 34,000 339 454 0
2020-03-26 12:33:21 GMT 54.471287 38.749695 34,000 339 455 64
2020-03-26 12:33:17 GMT 54.464069 38.754520 34,000 339 455 0
2020-03-26 12:33:11 GMT 54.452293 38.762264 34,000 339 455 0
2020-03-26 12:33:08 GMT 54.446007 38.766422 34,000 339 455 0
2020-03-26 12:33:04 GMT 54.438606 38.771420 34,000 339 455 0
2020-03-26 12:32:59 GMT 54.428696 38.777943 34,000 339 455 0
2020-03-26 12:32:56 GMT 54.424393 38.780849 34,000 339 455 64
2020-03-26 12:32:51 GMT 54.412117 38.788979 34,000 339 455 0
2020-03-26 12:32:48 GMT 54.405273 38.793472 34,000 339 455 0
2020-03-26 12:32:39 GMT 54.389694 38.803791 34,000 339 455 0
2020-03-26 12:32:36 GMT 54.384155 38.807426 34,000 339 456 0
2020-03-26 12:32:29 GMT 54.369049 38.817444 34,000 339 456 0
2020-03-26 12:32:26 GMT 54.363968 38.820755 34,000 339 456 0
2020-03-26 12:32:18 GMT 54.348633 38.830853 34,000 339 456 0
2020-03-26 12:32:15 GMT 54.343323 38.834328 34,000 339 456 0
2020-03-26 12:32:10 GMT 54.331146 38.842403 34,000 339 456 0
2020-03-26 12:32:05 GMT 54.321487 38.848705 34,000 339 456 0
2020-03-26 12:31:58 GMT 54.307709 38.857754 34,000 339 456 0
2020-03-26 12:31:49 GMT 54.291874 38.868214 34,000 339 457 0
2020-03-26 12:31:45 GMT 54.282166 38.874638 34,000 339 457 0
2020-03-26 12:31:37 GMT 54.266270 38.885059 34,000 339 457 0
2020-03-26 12:31:32 GMT 54.258133 38.890423 34,000 339 457 -64
2020-03-26 12:31:27 GMT 54.240372 38.901882 34,000 340 457 0
2020-03-26 12:31:24 GMT 54.240372 38.901882 34,000 342 457 0
2020-03-26 12:31:18 GMT 54.231075 38.907272 34,000 343 457 0
2020-03-26 12:31:15 GMT 54.225445 38.910263 34,000 343 457 64
2020-03-26 12:31:09 GMT 54.205101 38.921169 34,000 343 456 0
2020-03-26 12:31:06 GMT 54.205101 38.921169 34,000 343 456 0
2020-03-26 12:31:01 GMT 54.196861 38.925529 34,000 343 456 0
2020-03-26 12:30:58 GMT 54.190704 38.928799 34,000 343 457 0
2020-03-26 12:30:55 GMT 54.183884 38.932487 34,000 343 456 0
2020-03-26 12:30:51 GMT 54.177017 38.936096 34,000 343 456 0
2020-03-26 12:30:48 GMT 54.169601 38.940098 34,000 343 457 0
2020-03-26 12:30:45 GMT 54.164566 38.942764 34,000 343 457 0
2020-03-26 12:30:42 GMT 54.155987 38.947342 34,000 343 457 0
2020-03-26 12:30:37 GMT 54.148636 38.951241 34,000 343 457 0
2020-03-26 12:30:34 GMT 54.142593 38.954460 34,000 343 457 0
2020-03-26 12:30:30 GMT 54.134853 38.958569 34,000 343 457 0
2020-03-26 12:30:27 GMT 54.117908 38.967617 34,000 343 457 0
2020-03-26 12:30:23 GMT 54.117908 38.967617 34,000 343 457 0
2020-03-26 12:30:18 GMT 54.107433 38.973190 34,000 343 457 0
2020-03-26 12:30:14 GMT 54.099655 38.977295 34,000 343 457 0
2020-03-26 12:30:11 GMT 54.093513 38.980541 34,000 343 457 0
2020-03-26 12:30:07 GMT 54.087276 38.983936 34,000 343 457 0
2020-03-26 12:30:03 GMT 54.078804 38.988461 34,000 343 457 0
2020-03-26 12:29:57 GMT 54.067017 38.994717 34,000 343 457 0
2020-03-26 12:29:53 GMT 54.056717 39.000210 34,000 343 458 0
2020-03-26 12:29:50 GMT 54.050777 39.003403 34,000 343 458 0
2020-03-26 12:29:47 GMT 54.046646 39.005623 34,000 343 458 0
2020-03-26 12:29:42 GMT 54.036346 39.011116 34,000 343 459 0
2020-03-26 12:29:39 GMT 54.028473 39.015278 34,000 343 458 0
2020-03-26 12:29:33 GMT 54.018471 39.020691 34,000 343 459 0
2020-03-26 12:29:27 GMT 54.004257 39.028225 34,000 343 459 0
2020-03-26 12:29:22 GMT 53.994637 39.033375 34,000 343 459 0
2020-03-26 12:29:16 GMT 53.984848 39.038582 34,000 343 458 0
2020-03-26 12:29:12 GMT 53.976562 39.042976 34,000 343 458 0
2020-03-26 12:29:09 GMT 53.970520 39.046196 34,000 343 458 0
2020-03-26 12:29:05 GMT 53.960999 39.051296 34,000 343 458 0
2020-03-26 12:29:00 GMT 53.950287 39.056946 34,000 343 458 0
2020-03-26 12:28:55 GMT 53.941406 39.061653 34,000 343 458 0
2020-03-26 12:28:50 GMT 53.922901 39.071342 34,000 343 458 0
2020-03-26 12:28:45 GMT 53.922901 39.071342 34,000 343 458 0
2020-03-26 12:28:42 GMT 53.917034 39.074493 34,000 343 458 0
2020-03-26 12:28:39 GMT 53.910564 39.077885 34,000 343 458 0
2020-03-26 12:28:33 GMT 53.895805 39.085640 34,000 343 458 0
2020-03-26 12:28:30 GMT 53.889568 39.088951 34,000 343 458 -64
2020-03-26 12:28:25 GMT 53.881470 39.093151 34,000 343 458 0
2020-03-26 12:28:22 GMT 53.875717 39.096260 34,000 343 458 0
2020-03-26 12:28:17 GMT 53.865829 39.101440 34,000 343 458 0
2020-03-26 12:28:14 GMT 53.859741 39.104656 34,000 343 458 0
2020-03-26 12:28:09 GMT 53.847015 39.111328 34,000 343 456 0
2020-03-26 12:28:05 GMT 53.840454 39.114803 34,000 343 458 0
2020-03-26 12:28:01 GMT 53.832401 39.119083 34,000 343 458 0
2020-03-26 12:27:58 GMT 53.825821 39.122551 34,000 343 458 0
2020-03-26 12:27:55 GMT 53.819595 39.125847 34,000 343 457 0
2020-03-26 12:27:51 GMT 53.811592 39.129990 34,000 343 457 0
2020-03-26 12:27:47 GMT 53.805634 39.133144 34,000 343 457 0
2020-03-26 12:27:41 GMT 53.792725 39.139973 34,000 343 457 0
2020-03-26 12:27:35 GMT 53.779221 39.147114 34,000 343 457 0
2020-03-26 12:27:31 GMT 53.772072 39.150909 34,000 343 457 0
2020-03-26 12:27:25 GMT 53.761364 39.156487 34,000 343 457 0
2020-03-26 12:27:20 GMT 53.751205 39.161865 34,000 343 457 0
2020-03-26 12:27:16 GMT 53.740723 39.167358 34,000 343 457 0
2020-03-26 12:27:11 GMT 53.730919 39.172482 34,000 343 457 0
2020-03-26 12:27:06 GMT 53.721470 39.177406 34,000 343 457 0
2020-03-26 12:27:00 GMT 53.709457 39.183681 34,000 343 457 0
2020-03-26 12:26:53 GMT 53.695541 39.190903 34,000 343 457 0
2020-03-26 12:26:50 GMT 53.689396 39.194130 34,000 343 457 0
2020-03-26 12:26:44 GMT 53.676918 39.200672 34,000 343 457 0
2020-03-26 12:26:39 GMT 53.668865 39.204872 34,000 343 457 0
2020-03-26 12:26:30 GMT 53.647495 39.215942 34,000 343 456 0
2020-03-26 12:26:22 GMT 53.632919 39.223625 34,000 343 456 0
2020-03-26 12:26:19 GMT 53.627701 39.226372 34,000 343 456 0
2020-03-26 12:26:15 GMT 53.618961 39.230965 34,000 343 456 0
2020-03-26 12:26:11 GMT 53.611279 39.234924 34,000 343 456 0
2020-03-26 12:26:08 GMT 53.605957 39.237747 34,000 343 456 0
2020-03-26 12:26:05 GMT 53.598907 39.241440 34,000 343 456 0
2020-03-26 12:26:01 GMT 53.588329 39.246960 34,000 343 456 0
2020-03-26 12:25:58 GMT 53.586044 39.248184 34,000 343 456 0
2020-03-26 12:25:51 GMT 53.571533 39.255718 34,000 343 456 0
2020-03-26 12:25:48 GMT 53.565006 39.259159 34,000 343 456 0
2020-03-26 12:25:44 GMT 53.556953 39.263359 34,000 343 456 0
2020-03-26 12:25:41 GMT 53.551025 39.266472 34,000 343 456 0
2020-03-26 12:25:38 GMT 53.544983 39.269611 34,000 343 456 0
2020-03-26 12:25:34 GMT 53.536926 39.273769 34,000 343 456 0
2020-03-26 12:25:31 GMT 53.530975 39.276852 34,000 343 456 0
2020-03-26 12:25:27 GMT 53.523762 39.280647 34,000 343 456 0
2020-03-26 12:25:21 GMT 53.510788 39.287346 34,000 343 456 0
2020-03-26 12:25:17 GMT 53.500813 39.292522 34,000 343 456 0
2020-03-26 12:25:12 GMT 53.490692 39.297783 34,000 343 456 0
2020-03-26 12:25:07 GMT 53.483120 39.301731 34,000 343 456 0
2020-03-26 12:25:03 GMT 53.475300 39.305771 34,000 343 456 0
2020-03-26 12:25:00 GMT 53.469250 39.308922 34,000 343 456 0
2020-03-26 12:24:56 GMT 53.461121 39.313084 34,000 343 456 0
2020-03-26 12:24:53 GMT 53.454849 39.316380 34,000 343 456 0
2020-03-26 12:24:50 GMT 53.449139 39.319340 34,000 343 456 0
2020-03-26 12:24:45 GMT 53.438244 39.324917 34,000 343 456 0
2020-03-26 12:24:40 GMT 53.428894 39.329720 34,000 343 456 0
2020-03-26 12:24:37 GMT 53.420654 39.334038 34,000 343 456 0
2020-03-26 12:24:29 GMT 53.406635 39.341232 34,000 343 456 0
2020-03-26 12:24:26 GMT 53.399734 39.344788 34,000 343 456 0
2020-03-26 12:24:20 GMT 53.388245 39.350674 34,000 343 456 0
2020-03-26 12:24:15 GMT 53.377682 39.356098 34,000 343 456 0
2020-03-26 12:24:11 GMT 53.368286 39.360954 34,000 343 456 0
2020-03-26 12:24:05 GMT 53.358627 39.365898 34,000 343 456 0
2020-03-26 12:24:00 GMT 53.346771 39.372017 34,000 343 456 0
2020-03-26 12:23:56 GMT 53.337479 39.376804 34,000 343 456 0
2020-03-26 12:23:49 GMT 53.325729 39.382835 34,000 343 457 0
2020-03-26 12:23:44 GMT 53.315441 39.388088 34,000 343 457 0
2020-03-26 12:23:40 GMT 53.306671 39.392578 34,000 343 457 0
2020-03-26 12:23:33 GMT 53.293655 39.399315 34,000 343 457 0
2020-03-26 12:23:29 GMT 53.285522 39.403484 34,000 343 457 0
2020-03-26 12:23:26 GMT 53.278572 39.407070 34,000 343 457 0
2020-03-26 12:23:20 GMT 53.252316 39.420479 34,000 343 457 0
2020-03-26 12:23:14 GMT 53.252316 39.420479 34,000 343 457 0
2020-03-26 12:23:09 GMT 53.244370 39.424595 34,000 343 457 0
2020-03-26 12:22:59 GMT 53.224594 39.434719 34,000 343 457 0
2020-03-26 12:22:55 GMT 53.214981 39.439625 34,000 343 457 0
2020-03-26 12:22:49 GMT 53.203400 39.445549 34,000 343 458 0
2020-03-26 12:22:38 GMT 53.182674 39.456104 34,000 343 458 -64
2020-03-26 12:22:29 GMT 53.161865 39.466686 34,000 343 458 0
2020-03-26 12:22:18 GMT 53.141846 39.476868 34,000 343 458 0
2020-03-26 12:22:14 GMT 53.133373 39.481148 34,000 343 458 64
2020-03-26 12:22:08 GMT 53.121552 39.487141 34,000 343 458 0
2020-03-26 12:22:05 GMT 53.113449 39.491219 34,000 343 458 0
2020-03-26 12:21:58 GMT 53.100723 39.497734 34,000 344 458 0
2020-03-26 12:21:51 GMT 53.087662 39.504326 34,000 344 458 0
2020-03-26 12:21:48 GMT 53.079254 39.508591 34,000 344 458 0
2020-03-26 12:21:37 GMT 53.058098 39.519314 34,000 344 458 0
2020-03-26 12:21:27 GMT 53.038219 39.529358 34,000 344 458 0
2020-03-26 12:21:17 GMT 53.018158 39.539482 34,000 344 458 0
2020-03-26 12:21:06 GMT 52.996651 39.550388 34,000 344 459 0
2020-03-26 12:20:56 GMT 52.976669 39.560471 34,000 344 459 0
2020-03-26 12:20:47 GMT 52.956059 39.570950 34,000 343 460 0
2020-03-26 12:20:36 GMT 52.934364 39.581936 34,000 344 460 0
2020-03-26 12:20:25 GMT 52.913181 39.592529 34,000 344 460 0
2020-03-26 12:20:16 GMT 52.893356 39.602509 34,000 344 460 0
2020-03-26 12:20:06 GMT 52.873032 39.612732 34,000 344 460 0
2020-03-26 12:19:56 GMT 52.851734 39.623367 34,000 344 460 0
2020-03-26 12:19:45 GMT 52.831203 39.633728 34,000 344 460 0
2020-03-26 12:19:35 GMT 52.810089 39.644241 34,000 344 461 0
2020-03-26 12:19:25 GMT 52.789818 39.654446 34,000 344 461 0
2020-03-26 12:19:15 GMT 52.768295 39.665146 34,000 344 461 0
2020-03-26 12:19:04 GMT 52.747696 39.675522 34,000 344 461 0
2020-03-26 12:18:54 GMT 52.727345 39.685677 34,000 344 462 0
2020-03-26 12:18:43 GMT 52.705700 39.696430 34,000 344 462 0
2020-03-26 12:18:33 GMT 52.685261 39.706631 34,000 344 462 0
2020-03-26 12:18:23 GMT 52.664062 39.717102 34,000 344 463 0
2020-03-26 12:18:13 GMT 52.643234 39.727478 34,000 344 463 0
2020-03-26 12:18:03 GMT 52.622543 39.737625 34,000 344 463 0
2020-03-26 12:17:53 GMT 52.602081 39.747772 34,000 344 463 0
2020-03-26 12:17:42 GMT 52.580662 39.758266 34,000 344 463 0
2020-03-26 12:17:32 GMT 52.560596 39.768074 34,000 344 463 0
2020-03-26 12:17:22 GMT 52.538857 39.778748 34,000 344 463 0
2020-03-26 12:17:12 GMT 52.518559 39.788715 34,000 344 463 0
2020-03-26 12:17:02 GMT 52.497238 39.799229 34,000 344 464 0
2020-03-26 12:16:52 GMT 52.476608 39.809494 34,000 343 464 0
2020-03-26 12:16:41 GMT 52.455734 39.820175 34,000 343 464 0
2020-03-26 12:16:31 GMT 52.434998 39.830704 34,000 343 464 -64
2020-03-26 12:16:21 GMT 52.413769 39.841450 34,000 343 464 0
2020-03-26 12:16:10 GMT 52.392448 39.852200 34,000 343 465 0
2020-03-26 12:16:01 GMT 52.372421 39.862366 34,000 343 465 0
2020-03-26 12:15:51 GMT 52.350861 39.873276 34,000 343 465 0
2020-03-26 12:15:40 GMT 52.329712 39.883957 34,000 343 466 0
2020-03-26 12:15:29 GMT 52.307583 39.895123 34,000 343 466 0
2020-03-26 12:15:20 GMT 52.288406 39.904697 34,000 343 467 0
2020-03-26 12:15:08 GMT 52.264709 39.916550 34,000 343 467 0
2020-03-26 12:14:59 GMT 52.245850 39.926071 34,000 343 467 0
2020-03-26 12:14:48 GMT 52.223145 39.937439 34,000 343 468 -64
2020-03-26 12:14:38 GMT 52.202682 39.947586 34,000 343 468 64
2020-03-26 12:14:28 GMT 52.181705 39.958061 34,000 343 468 0
2020-03-26 12:14:18 GMT 52.159836 39.969025 34,000 343 469 0
2020-03-26 12:14:08 GMT 52.139145 39.979324 34,000 344 469 0
2020-03-26 12:13:57 GMT 52.118179 39.989700 34,000 344 469 0
2020-03-26 12:13:46 GMT 52.095261 40.001064 34,000 344 470 0
2020-03-26 12:13:37 GMT 52.076477 40.010376 34,000 344 470 0
2020-03-26 12:13:27 GMT 52.055828 40.020603 34,000 343 470 0
2020-03-26 12:13:17 GMT 52.033623 40.031670 34,000 343 471 0
2020-03-26 12:13:06 GMT 52.011604 40.042812 34,000 343 471 0
2020-03-26 12:12:56 GMT 51.990097 40.053558 34,000 343 471 0
2020-03-26 12:12:46 GMT 51.969315 40.064011 34,000 343 471 0
2020-03-26 12:12:36 GMT 51.949692 40.073967 34,000 343 471 0
2020-03-26 12:12:27 GMT 51.929214 40.084305 34,000 343 471 0
2020-03-26 12:12:24 GMT 51.923996 40.086899 34,000 343 471 0
2020-03-26 12:12:15 GMT 51.905186 40.096333 34,000 343 471 0
2020-03-26 12:12:05 GMT 51.884842 40.106583 34,000 343 471 0
2020-03-26 12:11:55 GMT 51.864265 40.116959 34,000 343 471 0
2020-03-26 12:11:44 GMT 51.841919 40.128159 34,000 343 472 0
2020-03-26 12:11:36 GMT 51.822464 40.137863 34,000 343 471 0
2020-03-26 12:11:30 GMT 51.811752 40.143150 34,000 343 471 0
2020-03-26 12:11:23 GMT 51.797607 40.150204 34,000 343 471 0
2020-03-26 12:11:13 GMT 51.777237 40.160374 34,000 343 471 0
2020-03-26 12:11:03 GMT 51.755894 40.170975 34,000 343 470 0
2020-03-26 12:10:53 GMT 51.735443 40.181232 34,000 343 471 0
2020-03-26 12:10:45 GMT 51.716000 40.190659 34,000 345 469 0
2020-03-26 12:10:34 GMT 51.695469 40.199432 34,000 346 468 0
2020-03-26 12:10:31 GMT 51.689941 40.201794 34,000 346 468 0
2020-03-26 12:10:22 GMT 51.671127 40.209812 34,000 346 468 0
2020-03-26 12:10:12 GMT 51.650208 40.218647 34,000 346 468 0
2020-03-26 12:10:02 GMT 51.627922 40.228043 34,000 346 468 0
2020-03-26 12:09:52 GMT 51.607086 40.236759 34,000 346 468 0
2020-03-26 12:09:42 GMT 51.585983 40.245590 34,000 346 468 0
2020-03-26 12:09:31 GMT 51.563004 40.255318 34,000 346 468 0
2020-03-26 12:09:21 GMT 51.541901 40.264225 34,000 346 467 0
2020-03-26 12:09:11 GMT 51.521130 40.273209 34,000 345 468 0
2020-03-26 12:09:03 GMT 51.503906 40.280853 34,000 345 469 0
2020-03-26 12:09:00 GMT 51.499622 40.282745 34,000 345 469 0
2020-03-26 12:08:50 GMT 51.479000 40.291977 34,000 345 469 0
2020-03-26 12:08:40 GMT 51.457214 40.301785 34,000 345 469 0
2020-03-26 12:08:32 GMT 51.439453 40.309654 34,000 345 469 0
2020-03-26 12:08:20 GMT 51.414413 40.320862 34,000 345 469 0
2020-03-26 12:08:09 GMT 51.392670 40.330513 34,000 345 470 0
2020-03-26 12:08:02 GMT 51.375549 40.338161 34,000 345 470 0
2020-03-26 12:07:59 GMT 51.371696 40.339890 34,000 345 470 0
2020-03-26 12:07:51 GMT 51.354675 40.347511 34,000 345 470 0
2020-03-26 12:07:41 GMT 51.333199 40.357132 34,000 345 470 0
2020-03-26 12:07:38 GMT 51.328491 40.359241 34,000 345 470 0
2020-03-26 12:07:31 GMT 51.311737 40.366665 34,000 345 471 0
2020-03-26 12:07:28 GMT 51.307270 40.368652 34,000 345 471 0
2020-03-26 12:07:18 GMT 51.286423 40.377949 34,000 345 471 0
2020-03-26 12:07:11 GMT 51.268799 40.385815 34,000 345 471 0
2020-03-26 12:07:08 GMT 51.264587 40.387672 34,000 345 472 0
2020-03-26 12:06:58 GMT 51.242889 40.397339 34,000 345 472 0
2020-03-26 12:06:50 GMT 51.225998 40.404819 34,000 345 472 0
2020-03-26 12:06:47 GMT 51.221603 40.406750 34,000 345 472 0
2020-03-26 12:06:40 GMT 51.205086 40.414047 34,000 345 472 0
2020-03-26 12:06:37 GMT 51.199722 40.416473 34,000 345 472 0
2020-03-26 12:06:27 GMT 51.178894 40.425606 34,000 345 473 0
2020-03-26 12:06:20 GMT 51.162094 40.433029 34,000 345 473 0
2020-03-26 12:06:17 GMT 51.157139 40.435257 34,000 345 473 0
2020-03-26 12:06:07 GMT 51.135773 40.444756 34,000 345 473 0
2020-03-26 12:05:56 GMT 51.113937 40.454407 34,000 345 474 0
2020-03-26 12:05:46 GMT 51.092663 40.463791 34,000 345 474 0
2020-03-26 12:05:39 GMT 51.076416 40.471039 34,000 345 475 0
2020-03-26 12:05:36 GMT 51.070404 40.473633 34,000 345 475 0
2020-03-26 12:05:29 GMT 51.054443 40.480652 34,000 345 475 0
2020-03-26 12:05:26 GMT 51.049255 40.482910 34,000 345 475 0
2020-03-26 12:05:18 GMT 51.032845 40.490112 34,000 345 475 0
2020-03-26 12:05:15 GMT 51.026932 40.492706 34,000 345 475 0
2020-03-26 12:05:08 GMT 51.010639 40.499802 34,000 345 475 0
2020-03-26 12:05:05 GMT 51.005333 40.502090 34,000 345 475 0
2020-03-26 12:04:58 GMT 50.989792 40.508820 34,000 345 475 0
2020-03-26 12:04:55 GMT 50.984253 40.511192 34,000 345 475 0
2020-03-26 12:04:47 GMT 50.968185 40.518173 34,000 345 475 0
2020-03-26 12:04:44 GMT 50.961594 40.520992 34,000 345 476 0
2020-03-26 12:04:38 GMT 50.946304 40.527599 34,000 345 476 0
2020-03-26 12:04:34 GMT 50.940716 40.530014 34,000 345 476 0
2020-03-26 12:04:27 GMT 50.924057 40.537174 34,000 345 476 0
2020-03-26 12:04:24 GMT 50.918106 40.539700 34,000 345 476 0
2020-03-26 12:04:17 GMT 50.902683 40.546341 34,000 345 476 0
2020-03-26 12:04:14 GMT 50.897049 40.548756 34,000 345 476 0
2020-03-26 12:04:06 GMT 50.881226 40.555573 34,000 345 476 0
2020-03-26 12:04:03 GMT 50.874660 40.558395 34,000 345 477 64
2020-03-26 12:03:57 GMT 50.858925 40.565186 34,000 345 477 0
2020-03-26 12:03:53 GMT 50.853806 40.567398 34,000 345 477 0
2020-03-26 12:03:46 GMT 50.837540 40.574512 34,000 345 477 0
2020-03-26 12:03:43 GMT 50.832001 40.576889 34,000 346 476 0
2020-03-26 12:03:36 GMT 50.816097 40.582809 34,000 349 473 0
2020-03-26 12:03:33 GMT 50.809525 40.584831 34,000 350 472 0
2020-03-26 12:03:26 GMT 50.793640 40.588840 34,000 353 469 0
2020-03-26 12:03:22 GMT 50.787094 40.590210 34,000 354 468 0
2020-03-26 12:03:15 GMT 50.771828 40.592422 34,000 357 465 0
2020-03-26 12:03:12 GMT 50.764099 40.593185 34,000 358 464 0
2020-03-26 12:03:05 GMT 50.750290 40.593666 34,000 0 461 0
2020-03-26 12:03:02 GMT 50.743988 40.593643 34,000 1 459 64
2020-03-26 12:02:56 GMT 50.729050 40.592628 34,000 3 457 0
2020-03-26 12:02:52 GMT 50.721909 40.591885 34,000 3 458 0
2020-03-26 12:02:42 GMT 50.700878 40.589676 34,000 3 458 0
2020-03-26 12:02:35 GMT 50.685379 40.588024 34,000 3 458 0
2020-03-26 12:02:31 GMT 50.678722 40.587311 34,000 3 458 0
2020-03-26 12:02:24 GMT 50.664047 40.585735 34,000 3 459 0
2020-03-26 12:02:21 GMT 50.656750 40.584980 34,000 3 459 0
2020-03-26 12:02:14 GMT 50.642178 40.583424 34,000 3 459 0
2020-03-26 12:02:10 GMT 50.633835 40.582558 34,000 3 459 0
2020-03-26 12:02:05 GMT 50.621044 40.581196 34,000 3 459 0
2020-03-26 12:02:01 GMT 50.614059 40.580452 34,000 3 459 0
2020-03-26 12:01:54 GMT 50.599907 40.578968 34,000 3 459 0
2020-03-26 12:01:50 GMT 50.592453 40.578148 34,000 3 458 0
2020-03-26 12:01:44 GMT 50.578079 40.576630 34,000 4 458 0
2020-03-26 12:01:40 GMT 50.570580 40.575851 34,000 4 458 0
2020-03-26 12:01:34 GMT 50.556847 40.574368 34,000 4 458 0
2020-03-26 12:01:29 GMT 50.548096 40.573376 34,000 4 458 0
2020-03-26 12:01:24 GMT 50.534180 40.571789 34,000 4 458 0
2020-03-26 12:01:19 GMT 50.526810 40.570992 34,000 4 458 0
2020-03-26 12:01:13 GMT 50.513412 40.569466 34,000 4 457 0
2020-03-26 12:01:09 GMT 50.505936 40.568607 34,000 4 457 0
2020-03-26 12:01:03 GMT 50.491608 40.566944 34,000 4 457 0
2020-03-26 12:00:59 GMT 50.484367 40.566051 34,000 4 457 0
2020-03-26 12:00:52 GMT 50.469727 40.564342 34,000 4 457 0
2020-03-26 12:00:48 GMT 50.460159 40.563232 34,000 4 457 0
2020-03-26 12:00:43 GMT 50.449127 40.561958 34,000 4 456 0
2020-03-26 12:00:38 GMT 50.440292 40.561016 34,000 4 456 0
2020-03-26 12:00:33 GMT 50.426193 40.559502 34,000 3 456 64
2020-03-26 12:00:28 GMT 50.419876 40.558777 34,000 3 456 0
2020-03-26 12:00:21 GMT 50.404770 40.557186 34,000 3 456 0
2020-03-26 12:00:18 GMT 50.397919 40.556477 34,000 3 456 0
2020-03-26 12:00:12 GMT 50.384090 40.554993 34,000 4 455 0
2020-03-26 12:00:08 GMT 50.376022 40.554150 34,000 3 455 0
2020-03-26 12:00:02 GMT 50.363564 40.552765 34,000 4 454 0
2020-03-26 11:59:58 GMT 50.355183 40.551872 34,000 4 454 0
2020-03-26 11:59:51 GMT 50.341591 40.550316 34,000 4 454 0
2020-03-26 11:59:47 GMT 50.331955 40.549274 34,000 4 454 0
2020-03-26 11:59:42 GMT 50.320454 40.548012 34,000 4 453 0
2020-03-26 11:59:37 GMT 50.311386 40.546925 34,000 4 453 0
2020-03-26 11:59:34 GMT 50.305233 40.546307 34,000 4 453 -64
2020-03-26 11:59:31 GMT 50.298763 40.545563 34,000 4 453 0
2020-03-26 11:59:26 GMT 50.290146 40.544609 34,000 3 452 0
2020-03-26 11:59:20 GMT 50.277603 40.543236 34,000 3 452 64
2020-03-26 11:59:16 GMT 50.268131 40.542225 34,000 3 452 0
2020-03-26 11:59:11 GMT 50.256912 40.541035 34,000 4 452 -64
2020-03-26 11:59:04 GMT 50.241085 40.539330 34,000 3 451 0
2020-03-26 11:59:00 GMT 50.234844 40.538658 34,000 3 451 0
2020-03-26 11:58:56 GMT 50.226326 40.537697 34,000 3 451 0
2020-03-26 11:58:51 GMT 50.214085 40.536358 34,000 3 450 64
2020-03-26 11:58:46 GMT 50.205750 40.535542 34,000 3 450 64
2020-03-26 11:58:43 GMT 50.197044 40.534653 34,000 3 450 0
2020-03-26 11:58:40 GMT 50.192856 40.534206 34,000 3 450 0
2020-03-26 11:58:36 GMT 50.184036 40.533264 34,000 3 450 0
2020-03-26 11:58:30 GMT 50.172325 40.532055 34,000 3 450 0
2020-03-26 11:58:25 GMT 50.162365 40.531013 34,000 3 450 0
2020-03-26 11:58:20 GMT 50.151031 40.529865 34,000 3 450 0
2020-03-26 11:58:15 GMT 50.141510 40.528927 34,000 3 450 0
2020-03-26 11:58:09 GMT 50.128464 40.527554 34,000 3 450 0
2020-03-26 11:58:05 GMT 50.119862 40.526634 34,000 3 450 0
2020-03-26 11:58:00 GMT 50.108875 40.525520 34,000 3 450 0
2020-03-26 11:57:55 GMT 50.099518 40.524555 34,000 3 449 0
2020-03-26 11:57:49 GMT 50.087090 40.523369 34,000 3 449 0
2020-03-26 11:57:44 GMT 50.077965 40.522404 34,000 3 449 0
2020-03-26 11:57:38 GMT 50.065247 40.521191 34,000 3 449 0
2020-03-26 11:57:34 GMT 50.057064 40.520397 34,000 3 449 0
2020-03-26 11:57:29 GMT 50.044819 40.519138 34,000 3 449 0
2020-03-26 11:57:24 GMT 50.035507 40.518173 34,000 3 450 64
2020-03-26 11:57:19 GMT 50.025780 40.517208 34,000 3 450 -64
2020-03-26 11:57:16 GMT 50.018234 40.516422 34,000 3 450 0
2020-03-26 11:57:13 GMT 50.012421 40.515770 34,000 3 450 0
2020-03-26 11:57:09 GMT 50.002785 40.514832 34,000 3 450 0
2020-03-26 11:57:06 GMT 49.995438 40.514034 34,000 3 450 0
2020-03-26 11:57:03 GMT 49.991501 40.513676 34,000 3 449 0
2020-03-26 11:56:58 GMT 49.981522 40.512665 34,000 3 449 64
2020-03-26 11:56:55 GMT 49.968704 40.511360 34,000 3 449 0
2020-03-26 11:56:47 GMT 49.959137 40.510422 34,000 3 450 0
2020-03-26 11:56:43 GMT 49.950623 40.509556 34,000 3 450 -64
2020-03-26 11:56:38 GMT 49.939636 40.508400 34,000 3 450 0
2020-03-26 11:56:35 GMT 49.932999 40.507675 34,000 3 450 -64
2020-03-26 11:56:32 GMT 49.928951 40.507259 34,000 3 450 0
2020-03-26 11:56:27 GMT 49.917965 40.506145 34,000 3 451 -64
2020-03-26 11:56:22 GMT 49.908188 40.505108 34,000 3 451 0
2020-03-26 11:56:18 GMT 49.898346 40.504063 34,000 3 451 0
2020-03-26 11:56:15 GMT 49.890358 40.503250 34,000 3 451 0
2020-03-26 11:56:12 GMT 49.886078 40.502762 34,000 3 451 0
2020-03-26 11:56:08 GMT 49.876511 40.501747 34,000 3 451 0
2020-03-26 11:56:04 GMT 49.870056 40.501099 34,000 3 451 0
2020-03-26 11:56:01 GMT 49.864334 40.500504 34,000 3 452 0
2020-03-26 11:55:57 GMT 49.854630 40.499580 34,000 3 452 0
2020-03-26 11:55:51 GMT 49.842499 40.498352 34,000 3 453 0
2020-03-26 11:55:47 GMT 49.833115 40.497414 34,000 3 453 0
2020-03-26 11:55:41 GMT 49.821693 40.496273 34,000 3 454 0
2020-03-26 11:55:37 GMT 49.812378 40.495316 34,000 3 454 0
2020-03-26 11:55:31 GMT 49.800659 40.494087 34,000 3 455 0
2020-03-26 11:55:24 GMT 49.782917 40.492264 34,000 3 456 0
2020-03-26 11:55:21 GMT 49.779751 40.491966 34,000 3 456 0
2020-03-26 11:55:17 GMT 49.769463 40.490856 34,000 4 456 -64
2020-03-26 11:55:10 GMT 49.757172 40.489532 34,000 4 456 64
2020-03-26 11:55:06 GMT 49.747211 40.488403 34,000 4 455 64
2020-03-26 11:55:03 GMT 49.741764 40.487736 34,000 4 456 64
2020-03-26 11:54:59 GMT 49.734222 40.486771 34,000 4 456 64
2020-03-26 11:54:56 GMT 49.724773 40.485657 34,000 4 456 0
2020-03-26 11:54:50 GMT 49.714783 40.484402 34,000 4 456 0
2020-03-26 11:54:45 GMT 49.703842 40.483028 34,000 4 456 0
2020-03-26 11:54:42 GMT 49.698517 40.482319 34,000 4 456 0
2020-03-26 11:54:39 GMT 49.692001 40.481503 34,000 4 456 0
2020-03-26 11:54:33 GMT 49.677383 40.479774 34,000 4 457 0
2020-03-26 11:54:29 GMT 49.671146 40.479053 34,000 4 457 -64
2020-03-26 11:54:25 GMT 49.660309 40.477825 34,000 4 457 0
2020-03-26 11:54:22 GMT 49.655228 40.477245 34,000 4 458 0
2020-03-26 11:54:19 GMT 49.649963 40.476669 34,000 4 458 0
2020-03-26 11:54:15 GMT 49.640259 40.475582 34,000 4 458 0
2020-03-26 11:54:11 GMT 49.633118 40.474789 34,000 4 458 0
2020-03-26 11:54:05 GMT 49.618973 40.473198 34,000 4 458 0
2020-03-26 11:54:02 GMT 49.612656 40.472549 34,000 4 458 0
2020-03-26 11:53:58 GMT 49.605881 40.471752 34,000 4 458 0
2020-03-26 11:53:54 GMT 49.597126 40.470814 34,000 3 458 0
2020-03-26 11:53:50 GMT 49.589119 40.469994 34,000 3 458 0
2020-03-26 11:53:47 GMT 49.581802 40.469296 34,000 3 458 0
2020-03-26 11:53:42 GMT 49.569473 40.468063 34,000 3 458 0
2020-03-26 11:53:35 GMT 49.553833 40.466579 34,000 3 458 0
2020-03-26 11:53:31 GMT 49.548340 40.466133 34,000 2 458 0
2020-03-26 11:53:24 GMT 49.532467 40.464874 34,000 2 458 64
2020-03-26 11:53:21 GMT 49.526089 40.464355 34,000 2 458 0
2020-03-26 11:53:16 GMT 49.517532 40.463657 34,000 2 458 -64
2020-03-26 11:53:13 GMT 49.508305 40.462944 34,000 2 458 0
2020-03-26 11:53:10 GMT 49.504211 40.462574 34,000 2 458 0
2020-03-26 11:53:04 GMT 49.490250 40.461491 34,000 2 458 0
2020-03-26 11:53:00 GMT 49.482933 40.460938 34,000 2 458 0
2020-03-26 11:52:51 GMT 49.461273 40.459175 34,000 2 458 0
2020-03-26 11:52:44 GMT 49.446899 40.458019 34,000 2 458 64
2020-03-26 11:52:40 GMT 49.440247 40.457451 34,000 3 458 0
2020-03-26 11:52:37 GMT 49.433807 40.456936 34,000 3 457 -64
2020-03-26 11:52:33 GMT 49.424419 40.456142 34,000 3 457 -64
2020-03-26 11:52:29 GMT 49.417557 40.455536 34,000 3 457 -64
2020-03-26 11:52:26 GMT 49.410267 40.454914 34,000 2 458 0
2020-03-26 11:52:20 GMT 49.396866 40.453773 34,000 3 458 128
2020-03-26 11:52:16 GMT 49.389130 40.453106 34,000 2 458 0
2020-03-26 11:52:13 GMT 49.381962 40.452526 34,000 3 457 0
2020-03-26 11:52:10 GMT 49.375816 40.451950 34,000 3 458 0
2020-03-26 11:52:06 GMT 49.369068 40.451370 34,000 3 458 0
2020-03-26 11:52:03 GMT 49.360828 40.450649 34,000 3 458 -64
2020-03-26 11:52:00 GMT 49.353973 40.450039 34,000 3 458 -64
2020-03-26 11:51:53 GMT 49.339188 40.448772 34,000 3 458 0
2020-03-26 11:51:48 GMT 49.331360 40.448139 34,000 3 458 0
2020-03-26 11:51:43 GMT 49.318909 40.447083 34,000 2 458 0
2020-03-26 11:51:40 GMT 49.314651 40.446732 34,000 2 458 0
2020-03-26 11:51:37 GMT 49.307053 40.446098 34,000 2 458 64
2020-03-26 11:51:32 GMT 49.295837 40.445251 34,000 2 458 -64
2020-03-26 11:51:28 GMT 49.288765 40.444649 34,000 2 458 0
2020-03-26 11:51:21 GMT 49.273819 40.443493 34,000 2 458 0
2020-03-26 11:51:18 GMT 49.265579 40.442787 34,000 2 458 0
2020-03-26 11:51:11 GMT 49.251617 40.441730 34,000 2 458 0
2020-03-26 11:51:08 GMT 49.245193 40.441181 34,000 2 458 0
2020-03-26 11:51:04 GMT 49.237976 40.440601 34,000 3 458 -64
2020-03-26 11:51:01 GMT 49.229736 40.439953 34,000 3 458 -64
2020-03-26 11:50:57 GMT 49.223171 40.439373 34,000 3 458 0
2020-03-26 11:50:51 GMT 49.209671 40.438290 34,000 3 458 0
2020-03-26 11:50:48 GMT 49.201618 40.437565 34,000 3 458 0
2020-03-26 11:50:44 GMT 49.194218 40.436989 34,000 3 458 0
2020-03-26 11:50:41 GMT 49.187759 40.436447 34,000 3 458 0
2020-03-26 11:50:37 GMT 49.179520 40.435745 34,000 3 458 0
2020-03-26 11:50:34 GMT 49.170151 40.434963 34,000 3 457 0
2020-03-26 11:50:30 GMT 49.165787 40.434547 34,000 3 457 0
2020-03-26 11:50:27 GMT 49.159470 40.434055 34,000 3 457 -64
2020-03-26 11:50:24 GMT 49.149666 40.433159 34,000 3 457 0
2020-03-26 11:50:20 GMT 49.144173 40.432724 34,000 3 457 0
2020-03-26 11:50:17 GMT 49.136032 40.431942 34,000 3 457 64
2020-03-26 11:50:13 GMT 49.128765 40.431351 34,000 3 457 64
2020-03-26 11:50:10 GMT 49.123169 40.430813 34,000 3 457 64
2020-03-26 11:50:06 GMT 49.114700 40.430038 34,000 3 457 0
2020-03-26 11:50:03 GMT 49.107513 40.429405 34,000 3 457 0
2020-03-26 11:50:00 GMT 49.101299 40.428822 34,000 3 457 0
2020-03-26 11:49:56 GMT 49.092640 40.428024 34,000 3 457 -64
2020-03-26 11:49:52 GMT 49.084633 40.427303 34,000 3 457 -64
2020-03-26 11:49:49 GMT 49.079636 40.426800 34,000 3 457 0
2020-03-26 11:49:43 GMT 49.064568 40.425423 34,000 3 457 0
2020-03-26 11:49:40 GMT 49.048927 40.423977 34,000 3 457 -64
2020-03-26 11:49:36 GMT 49.048927 40.423977 34,000 3 457 0
2020-03-26 11:49:33 GMT 49.037018 40.422855 34,000 3 457 0
2020-03-26 11:49:29 GMT 49.037018 40.422855 34,000 3 457 0
2020-03-26 11:49:25 GMT 49.027000 40.421883 34,000 3 457 -64
2020-03-26 11:49:19 GMT 49.015362 40.420795 34,000 3 457 0
2020-03-26 11:49:15 GMT 49.003876 40.419685 34,000 3 457 0
2020-03-26 11:49:09 GMT 48.994461 40.418846 34,000 3 457 0
2020-03-26 11:49:05 GMT 48.986801 40.418209 34,000 3 457 0
2020-03-26 11:49:01 GMT 48.977379 40.417400 34,000 3 457 64
2020-03-26 11:48:58 GMT 48.971279 40.416965 34,000 2 457 64
2020-03-26 11:48:55 GMT 48.964901 40.416534 34,000 2 458 0
2020-03-26 11:48:52 GMT 48.956474 40.415955 34,000 2 458 0
2020-03-26 11:48:47 GMT 48.947815 40.415520 34,000 1 459 0
2020-03-26 11:48:44 GMT 48.940601 40.415234 34,000 1 459 0
2020-03-26 11:48:38 GMT 48.929615 40.414871 34,000 1 459 0
2020-03-26 11:48:33 GMT 48.917862 40.414474 34,000 1 458 0
2020-03-26 11:48:26 GMT 48.904495 40.414055 34,000 1 458 -64
2020-03-26 11:48:23 GMT 48.896980 40.413788 34,000 1 458 0
2020-03-26 11:48:18 GMT 48.885864 40.413418 34,000 1 458 0
2020-03-26 11:48:13 GMT 48.868744 40.412857 34,000 1 458 64
2020-03-26 11:48:06 GMT 48.860577 40.412628 34,000 1 458 0
2020-03-26 11:48:03 GMT 48.853088 40.412361 34,000 1 458 0
2020-03-26 11:47:58 GMT 48.843445 40.412052 34,000 1 458 0
2020-03-26 11:47:55 GMT 48.836277 40.411835 34,000 1 458 64
2020-03-26 11:47:51 GMT 48.830017 40.411659 34,000 1 458 0
2020-03-26 11:47:46 GMT 48.818310 40.411255 34,000 1 458 0
2020-03-26 11:47:42 GMT 48.809326 40.410954 34,000 1 458 0
2020-03-26 11:47:37 GMT 48.799576 40.410603 34,000 1 458 0
2020-03-26 11:47:34 GMT 48.793259 40.410393 34,000 1 458 0
2020-03-26 11:47:30 GMT 48.783325 40.410038 34,000 1 457 0
2020-03-26 11:47:27 GMT 48.778656 40.409828 34,000 1 457 0
2020-03-26 11:47:21 GMT 48.765656 40.409306 34,000 1 457 0
2020-03-26 11:47:17 GMT 48.756580 40.408943 34,000 1 457 0
2020-03-26 11:47:13 GMT 48.750248 40.408726 34,000 1 457 0
2020-03-26 11:47:10 GMT 48.743179 40.408421 34,000 1 457 0
2020-03-26 11:47:07 GMT 48.735352 40.408138 34,000 1 457 -64
2020-03-26 11:47:04 GMT 48.728394 40.407856 34,000 1 457 -64
2020-03-26 11:47:00 GMT 48.718689 40.407505 34,000 1 457 0
2020-03-26 11:46:56 GMT 48.713379 40.407291 34,000 1 457 0
2020-03-26 11:46:53 GMT 48.706009 40.406940 34,000 1 457 0
2020-03-26 11:46:49 GMT 48.697693 40.406631 34,000 1 457 0
2020-03-26 11:46:46 GMT 48.691360 40.406414 34,000 1 457 0
2020-03-26 11:46:42 GMT 48.684082 40.406094 34,000 1 457 0
2020-03-26 11:46:39 GMT 48.677395 40.405834 34,000 1 457 0
2020-03-26 11:46:34 GMT 48.666454 40.405476 34,000 1 457 64
2020-03-26 11:46:30 GMT 48.647648 40.404823 34,000 1 458 64
2020-03-26 11:46:26 GMT 48.647648 40.404823 34,000 1 458 0
2020-03-26 11:46:22 GMT 48.641190 40.404617 34,000 1 458 0
2020-03-26 11:46:19 GMT 48.633263 40.404320 34,000 1 458 -64
2020-03-26 11:46:16 GMT 48.627640 40.404121 34,000 1 458 0
2020-03-26 11:46:13 GMT 48.621204 40.403885 34,000 1 458 0
2020-03-26 11:46:09 GMT 48.611801 40.403561 34,000 1 458 0
2020-03-26 11:46:02 GMT 48.599533 40.403137 34,000 1 458 0
2020-03-26 11:45:59 GMT 48.592575 40.402855 34,000 1 458 -64
2020-03-26 11:45:55 GMT 48.584106 40.402573 34,000 1 458 -64
2020-03-26 11:45:52 GMT 48.577446 40.402294 34,000 1 458 -64
2020-03-26 11:45:47 GMT 48.568268 40.402012 34,000 1 458 64
2020-03-26 11:45:44 GMT 48.561199 40.401714 34,000 1 458 0
2020-03-26 11:45:41 GMT 48.555359 40.401516 34,000 1 457 -64
2020-03-26 11:45:38 GMT 48.546162 40.401211 34,000 1 457 0
2020-03-26 11:45:35 GMT 48.541138 40.400993 34,000 1 457 0
2020-03-26 11:45:31 GMT 48.533920 40.400776 34,000 1 457 -64
2020-03-26 11:45:28 GMT 48.526657 40.400459 34,000 1 456 0
2020-03-26 11:45:22 GMT 48.513382 40.400040 34,000 1 456 64
2020-03-26 11:45:18 GMT 48.505291 40.399765 34,000 1 456 0
2020-03-26 11:45:14 GMT 48.496948 40.399475 34,000 1 456 -64
2020-03-26 11:45:07 GMT 48.482292 40.398895 34,000 1 456 0
2020-03-26 11:45:04 GMT 48.476120 40.398701 34,000 1 456 64
2020-03-26 11:45:01 GMT 48.470215 40.398491 34,000 1 456 64
2020-03-26 11:44:57 GMT 48.462555 40.398174 34,000 1 456 0
2020-03-26 11:44:54 GMT 48.454315 40.397884 34,000 1 456 0
2020-03-26 11:44:51 GMT 48.448868 40.397739 34,000 1 455 0
2020-03-26 11:44:46 GMT 48.435184 40.397236 34,000 1 455 0
2020-03-26 11:44:43 GMT 48.431946 40.397152 34,000 1 455 0
2020-03-26 11:44:40 GMT 48.426865 40.397011 34,000 1 455 0
2020-03-26 11:44:37 GMT 48.416565 40.396660 34,000 1 455 0
2020-03-26 11:44:31 GMT 48.405762 40.396294 34,000 1 455 0
2020-03-26 11:44:26 GMT 48.395782 40.396023 34,000 1 455 0
2020-03-26 11:44:23 GMT 48.388596 40.395813 34,000 1 455 -64
2020-03-26 11:44:20 GMT 48.384533 40.395645 34,000 1 455 -64
2020-03-26 11:44:16 GMT 48.374851 40.395355 34,000 1 455 -64
2020-03-26 11:44:10 GMT 48.362778 40.395039 34,000 1 455 64
2020-03-26 11:44:05 GMT 48.353020 40.394775 34,000 1 455 0
2020-03-26 11:44:00 GMT 48.341473 40.394417 34,000 1 454 64
2020-03-26 11:43:56 GMT 48.331512 40.394123 34,000 1 454 0
2020-03-26 11:43:50 GMT 48.320160 40.393772 34,000 1 454 0
2020-03-26 11:43:44 GMT 48.309353 40.393402 34,000 1 454 0
2020-03-26 11:43:40 GMT 48.297436 40.392971 34,000 1 454 0
2020-03-26 11:43:34 GMT 48.287888 40.392643 34,000 1 454 0
2020-03-26 11:43:29 GMT 48.276352 40.392220 34,000 1 454 0
2020-03-26 11:43:25 GMT 48.267406 40.391888 34,000 1 454 0
2020-03-26 11:43:19 GMT 48.255798 40.391518 34,000 1 454 0
2020-03-26 11:43:14 GMT 48.245956 40.391167 34,000 1 454 0
2020-03-26 11:43:09 GMT 48.234604 40.390743 34,000 1 454 -64
2020-03-26 11:43:04 GMT 48.223938 40.390388 34,000 1 454 0
2020-03-26 11:42:58 GMT 48.212814 40.390038 34,000 1 454 0
2020-03-26 11:42:53 GMT 48.201691 40.389614 34,000 1 454 0
2020-03-26 11:42:48 GMT 48.192181 40.389214 34,000 1 454 0
2020-03-26 11:42:43 GMT 48.180542 40.388771 34,000 1 454 0
2020-03-26 11:42:38 GMT 48.169975 40.388344 34,000 1 454 0
2020-03-26 11:42:32 GMT 48.158524 40.387939 34,000 1 454 0
2020-03-26 11:42:28 GMT 48.149399 40.387573 34,000 1 454 0
2020-03-26 11:42:22 GMT 48.137436 40.387150 34,000 1 454 0
2020-03-26 11:42:17 GMT 48.127380 40.386726 34,000 1 454 0
2020-03-26 11:42:13 GMT 48.115311 40.386360 34,000 1 454 0
2020-03-26 11:42:07 GMT 48.105698 40.386017 34,000 1 454 0
2020-03-26 11:42:02 GMT 48.094467 40.385601 34,000 1 454 -64
2020-03-26 11:41:57 GMT 48.083862 40.385262 34,000 1 454 -64
2020-03-26 11:41:51 GMT 48.072327 40.384850 34,000 1 454 0
2020-03-26 11:41:46 GMT 48.062393 40.384544 34,000 1 454 0
2020-03-26 11:41:41 GMT 48.050079 40.384163 34,000 1 454 -64
2020-03-26 11:41:36 GMT 48.040237 40.383888 34,000 1 454 0
2020-03-26 11:41:30 GMT 48.028290 40.383545 34,000 1 454 64
2020-03-26 11:41:26 GMT 48.019798 40.383278 34,000 1 454 0
2020-03-26 11:41:20 GMT 48.004295 40.382854 34,000 1 454 0
2020-03-26 11:41:16 GMT 47.998306 40.382721 34,000 1 454 0
2020-03-26 11:41:09 GMT 47.984371 40.382290 34,000 1 454 64
2020-03-26 11:41:06 GMT 47.976830 40.382080 34,000 1 454 0
2020-03-26 11:41:00 GMT 47.963470 40.381691 34,000 1 454 0
2020-03-26 11:40:55 GMT 47.954765 40.381374 34,000 1 454 0
2020-03-26 11:40:50 GMT 47.941864 40.381004 34,000 1 454 0
2020-03-26 11:40:45 GMT 47.934467 40.380741 34,000 1 454 64
2020-03-26 11:40:39 GMT 47.920715 40.380249 34,000 1 454 0
2020-03-26 11:40:35 GMT 47.912636 40.379967 34,000 1 454 -64
2020-03-26 11:40:29 GMT 47.898880 40.379494 34,000 1 455 0
2020-03-26 11:40:25 GMT 47.890568 40.379192 34,000 1 455 64
2020-03-26 11:40:19 GMT 47.874832 40.378628 34,000 1 455 0
2020-03-26 11:40:14 GMT 47.868210 40.378395 34,000 1 455 0
2020-03-26 11:40:07 GMT 47.853607 40.377853 34,000 1 455 0
2020-03-26 11:40:04 GMT 47.847088 40.377644 34,000 1 455 0
2020-03-26 11:39:57 GMT 47.832191 40.377151 34,000 1 455 0
2020-03-26 11:39:54 GMT 47.827011 40.377022 34,000 1 455 0
2020-03-26 11:39:47 GMT 47.809242 40.376305 34,000 1 455 -64
2020-03-26 11:39:44 GMT 47.804947 40.376129 34,000 1 455 0
2020-03-26 11:39:34 GMT 47.783775 40.375389 34,000 1 456 0
2020-03-26 11:39:24 GMT 47.762550 40.374546 34,000 1 456 0
2020-03-26 11:39:16 GMT 47.743698 40.373863 34,000 1 456 0
2020-03-26 11:39:03 GMT 47.719070 40.373108 34,000 1 456 0
2020-03-26 11:38:55 GMT 47.701286 40.372501 34,000 1 456 0
2020-03-26 11:38:52 GMT 47.696732 40.372353 34,000 1 456 0
2020-03-26 11:38:43 GMT 47.676132 40.371666 34,000 1 456 0
2020-03-26 11:38:33 GMT 47.655075 40.370911 34,000 1 456 0
2020-03-26 11:38:22 GMT 47.632965 40.370224 34,000 1 456 0
2020-03-26 11:38:12 GMT 47.612000 40.369545 34,000 1 456 0
2020-03-26 11:38:02 GMT 47.590027 40.368782 34,000 1 456 0
2020-03-26 11:37:51 GMT 47.568474 40.368065 34,000 1 455 0
2020-03-26 11:37:41 GMT 47.547546 40.367271 34,000 1 456 0
2020-03-26 11:37:31 GMT 47.526077 40.366447 34,000 1 456 0
2020-03-26 11:37:20 GMT 47.503021 40.365528 34,000 1 456 0
2020-03-26 11:37:11 GMT 47.483234 40.364754 34,000 1 456 0
2020-03-26 11:37:00 GMT 47.460705 40.363911 34,000 1 456 0
2020-03-26 11:36:50 GMT 47.440201 40.363220 34,000 1 456 0
2020-03-26 11:36:40 GMT 47.418274 40.362465 34,000 1 456 0
2020-03-26 11:36:30 GMT 47.396530 40.361778 34,000 1 457 0
2020-03-26 11:36:19 GMT 47.374374 40.361092 34,000 1 457 0
2020-03-26 11:36:09 GMT 47.352146 40.359543 34,000 5 456 0
2020-03-26 11:35:58 GMT 47.330128 40.355740 34,000 9 457 0
2020-03-26 11:35:54 GMT 47.321686 40.353676 34,000 10 457 0
2020-03-26 11:35:48 GMT 47.309097 40.349899 34,000 12 457 0
2020-03-26 11:35:44 GMT 47.300858 40.347015 34,000 14 457 -64
2020-03-26 11:35:39 GMT 47.288788 40.342079 34,000 17 457 0
2020-03-26 11:35:33 GMT 47.278732 40.337360 34,000 19 457 0
2020-03-26 11:35:28 GMT 47.267422 40.331444 34,000 19 456 0
2020-03-26 11:35:23 GMT 47.259460 40.327217 34,000 19 456 0
2020-03-26 11:35:17 GMT 47.246704 40.320526 34,000 19 457 0
2020-03-26 11:35:14 GMT 47.239838 40.316940 34,000 19 458 0
2020-03-26 11:35:08 GMT 47.226639 40.309963 34,000 19 458 0
2020-03-26 11:35:03 GMT 47.218964 40.305885 34,000 19 458 0
2020-03-26 11:34:59 GMT 47.210632 40.301491 34,000 19 458 0
2020-03-26 11:34:56 GMT 47.204819 40.298401 34,000 19 458 0
2020-03-26 11:34:53 GMT 47.199127 40.295387 34,000 19 458 0
2020-03-26 11:34:49 GMT 47.184494 40.287689 34,000 19 458 0
2020-03-26 11:34:42 GMT 47.177200 40.283836 34,000 19 458 -64
2020-03-26 11:34:37 GMT 47.164352 40.277046 34,000 19 458 0
2020-03-26 11:34:32 GMT 47.157463 40.273415 34,000 19 458 0
2020-03-26 11:34:26 GMT 47.144760 40.266747 34,000 19 459 0
2020-03-26 11:34:19 GMT 47.127777 40.257820 34,000 19 460 0
2020-03-26 11:34:16 GMT 47.123669 40.255669 34,000 19 460 -64
2020-03-26 11:34:12 GMT 47.117058 40.252148 34,000 19 460 0
2020-03-26 11:34:09 GMT 47.111755 40.249374 34,000 19 461 0
2020-03-26 11:34:06 GMT 47.103649 40.245102 34,000 19 461 0
2020-03-26 11:34:02 GMT 47.096619 40.241440 34,000 19 461 64
2020-03-26 11:33:56 GMT 47.082981 40.234257 34,000 19 461 64
2020-03-26 11:33:51 GMT 47.075764 40.230453 34,000 19 461 0
2020-03-26 11:33:45 GMT 47.061813 40.223145 34,000 19 462 0
2020-03-26 11:33:41 GMT 47.055588 40.219917 34,000 19 462 0
2020-03-26 11:33:37 GMT 47.047276 40.215527 34,000 19 461 0
2020-03-26 11:33:34 GMT 47.040161 40.211815 34,000 19 461 0
2020-03-26 11:33:31 GMT 47.035126 40.209206 34,000 19 461 0
2020-03-26 11:33:28 GMT 47.026657 40.204811 34,000 19 461 0
2020-03-26 11:33:25 GMT 47.020321 40.201511 34,000 19 461 0
2020-03-26 11:33:21 GMT 47.014206 40.198288 34,000 19 462 0
2020-03-26 11:33:14 GMT 46.999603 40.190662 34,000 19 462 -64
2020-03-26 11:33:11 GMT 46.993698 40.187508 34,000 19 462 0
2020-03-26 11:33:07 GMT 46.986053 40.183525 34,000 19 463 0
2020-03-26 11:33:04 GMT 46.979729 40.180241 34,000 19 463 0
2020-03-26 11:33:01 GMT 46.973488 40.176933 34,000 19 463 0
2020-03-26 11:32:56 GMT 46.964828 40.172424 34,000 19 463 0
2020-03-26 11:32:51 GMT 46.953331 40.166439 34,000 19 463 0
2020-03-26 11:32:47 GMT 46.945698 40.162422 34,000 19 462 64
2020-03-26 11:32:44 GMT 46.938015 40.158409 34,000 19 462 0
2020-03-26 11:32:40 GMT 46.931854 40.155235 34,000 19 462 0
2020-03-26 11:32:37 GMT 46.923725 40.151016 34,000 19 463 0
2020-03-26 11:32:33 GMT 46.917343 40.147751 34,000 19 463 0
2020-03-26 11:32:30 GMT 46.911995 40.144958 34,000 19 463 0
2020-03-26 11:32:26 GMT 46.903656 40.140610 34,000 19 463 0
2020-03-26 11:32:22 GMT 46.896259 40.136860 34,000 19 463 0
2020-03-26 11:32:19 GMT 46.889740 40.133469 34,000 19 463 0
2020-03-26 11:32:16 GMT 46.882759 40.129818 34,000 19 463 0
2020-03-26 11:32:13 GMT 46.875683 40.126225 34,000 19 463 0
2020-03-26 11:32:10 GMT 46.870655 40.123619 34,000 19 463 0
2020-03-26 11:32:06 GMT 46.862457 40.119392 34,000 19 463 0
2020-03-26 11:32:02 GMT 46.854584 40.115372 34,000 19 463 0
2020-03-26 11:31:56 GMT 46.842350 40.109093 34,000 19 464 0
2020-03-26 11:31:52 GMT 46.829315 40.102375 34,000 19 464 0
2020-03-26 11:31:46 GMT 46.821442 40.098354 34,000 19 464 0
2020-03-26 11:31:42 GMT 46.812927 40.094002 34,000 19 464 0
2020-03-26 11:31:38 GMT 46.807480 40.091255 34,000 19 464 0
2020-03-26 11:31:35 GMT 46.800503 40.087669 34,000 19 464 0
2020-03-26 11:31:31 GMT 46.791611 40.083138 34,000 19 464 0
2020-03-26 11:31:28 GMT 46.787327 40.080940 34,000 19 464 0
2020-03-26 11:31:25 GMT 46.780251 40.077301 34,000 19 464 0
2020-03-26 11:31:18 GMT 46.766602 40.070354 34,000 19 464 0
2020-03-26 11:31:14 GMT 46.759094 40.066536 34,000 19 464 0
2020-03-26 11:31:11 GMT 46.749901 40.061852 34,000 19 463 0
2020-03-26 11:31:08 GMT 46.746964 40.060307 34,000 19 463 0
2020-03-26 11:31:04 GMT 46.738449 40.056019 34,000 19 463 0
2020-03-26 11:30:58 GMT 46.725723 40.049519 34,000 19 463 0
2020-03-26 11:30:55 GMT 46.718102 40.045647 34,000 19 463 0
2020-03-26 11:30:50 GMT 46.709290 40.041214 34,000 19 463 0
2020-03-26 11:30:47 GMT 46.704323 40.038643 34,000 19 463 0
2020-03-26 11:30:44 GMT 46.697342 40.035118 34,000 19 463 0
2020-03-26 11:30:40 GMT 46.688049 40.030430 34,000 19 463 0
2020-03-26 11:30:34 GMT 46.676624 40.024567 34,000 19 463 0
2020-03-26 11:30:30 GMT 46.667404 40.019913 34,000 19 463 0
2020-03-26 11:30:27 GMT 46.664154 40.018303 34,000 19 464 64
2020-03-26 11:30:24 GMT 46.655769 40.013992 34,000 19 464 0
2020-03-26 11:30:17 GMT 46.642830 40.007401 34,000 19 464 0
2020-03-26 11:30:13 GMT 46.635635 40.003700 34,000 19 464 0
2020-03-26 11:30:07 GMT 46.621971 39.996689 34,000 19 464 0
2020-03-26 11:30:04 GMT 46.614212 39.992645 34,000 19 464 0
2020-03-26 11:29:57 GMT 46.601898 39.986282 34,000 19 464 0
2020-03-26 11:29:53 GMT 46.593796 39.982063 34,000 19 464 0
2020-03-26 11:29:46 GMT 46.580822 39.975334 34,000 19 463 -64
2020-03-26 11:29:43 GMT 46.573837 39.971680 34,000 20 464 0
2020-03-26 11:29:36 GMT 46.560974 39.964844 34,000 20 464 0
2020-03-26 11:29:32 GMT 46.552425 39.960297 34,000 20 464 0
2020-03-26 11:29:26 GMT 46.540237 39.953857 34,000 20 464 0
2020-03-26 11:29:22 GMT 46.532181 39.949638 34,000 20 464 0
2020-03-26 11:29:16 GMT 46.519684 39.943008 34,000 19 463 0
2020-03-26 11:29:13 GMT 46.512039 39.938988 34,000 19 463 0
2020-03-26 11:29:06 GMT 46.498795 39.932144 34,000 19 464 0
2020-03-26 11:29:01 GMT 46.489838 39.927464 34,000 19 464 0
2020-03-26 11:28:55 GMT 46.477112 39.920898 34,000 19 463 0
2020-03-26 11:28:51 GMT 46.469330 39.916969 34,000 19 463 -64
2020-03-26 11:28:45 GMT 46.456993 39.910721 34,000 19 463 0
2020-03-26 11:28:41 GMT 46.449188 39.906834 34,000 19 463 -64
2020-03-26 11:28:35 GMT 46.436928 39.900696 34,000 19 463 -64
2020-03-26 11:28:32 GMT 46.428829 39.896645 34,000 19 463 0
2020-03-26 11:28:25 GMT 46.416306 39.890259 34,000 19 463 0
2020-03-26 11:28:21 GMT 46.407120 39.885597 34,000 19 464 0
2020-03-26 11:28:14 GMT 46.395584 39.879768 34,000 19 463 0
2020-03-26 11:28:09 GMT 46.383682 39.873737 34,000 19 463 192
2020-03-26 11:28:04 GMT 46.374390 39.868984 33,975 19 462 704
2020-03-26 11:28:01 GMT 46.364960 39.864227 33,875 19 460 1344
2020-03-26 11:27:54 GMT 46.354206 39.858810 33,750 19 459 1280
2020-03-26 11:27:49 GMT 46.342987 39.853111 33,650 19 459 1344
2020-03-26 11:27:44 GMT 46.333954 39.848511 33,550 19 458 1344
2020-03-26 11:27:39 GMT 46.322968 39.842880 33,425 19 458 1280
2020-03-26 11:27:33 GMT 46.313141 39.837898 33,325 19 457 1216
2020-03-26 11:27:30 GMT 46.305359 39.833881 33,250 19 456 1216
2020-03-26 11:27:23 GMT 46.293129 39.827637 33,125 19 456 1216
2020-03-26 11:27:20 GMT 46.283707 39.822826 33,000 19 456 1472
2020-03-26 11:27:13 GMT 46.272949 39.817333 32,850 19 457 1792
2020-03-26 11:27:10 GMT 46.252254 39.806694 32,675 19 459 1856
2020-03-26 11:27:03 GMT 46.252254 39.806694 32,550 19 461 1920
2020-03-26 11:27:00 GMT 46.245941 39.803467 32,450 19 462 1920
2020-03-26 11:26:52 GMT 46.230835 39.795761 32,175 19 464 2752
2020-03-26 11:26:49 GMT 46.224232 39.792412 31,300 19 468 2880
2020-03-26 11:26:43 GMT 46.211334 39.785915 31,675 19 468 2880
2020-03-26 11:26:40 GMT 46.204262 39.782318 31,525 19 470 3008
2020-03-26 11:26:33 GMT 46.189819 39.774998 31,175 19 473 3008
2020-03-26 11:26:26 GMT 46.176178 39.768097 30,850 19 475 3072
2020-03-26 11:26:22 GMT 46.168259 39.764145 30,650 19 477 2944
2020-03-26 11:26:19 GMT 46.162315 39.761169 30,500 19 478 2752
2020-03-26 11:26:11 GMT 46.146629 39.753273 30,175 19 481 2688
2020-03-26 11:26:08 GMT 46.139923 39.749840 30,025 19 482 2560
2020-03-26 11:26:02 GMT 46.124611 39.742149 29,725 19 483 2240
2020-03-26 11:25:58 GMT 46.119232 39.739426 29,375 19 481 1920
2020-03-26 11:25:49 GMT 46.097534 39.728504 29,325 19 481 1920
2020-03-26 11:25:41 GMT 46.081604 39.720467 29,075 19 481 1856
2020-03-26 11:25:38 GMT 46.075516 39.717384 29,000 19 480 1856
2020-03-26 11:25:31 GMT 46.059769 39.709545 28,750 19 479 1792
2020-03-26 11:25:27 GMT 46.053497 39.706398 28,675 19 478 1792
2020-03-26 11:25:21 GMT 46.040359 39.699833 28,400 19 477 1728
2020-03-26 11:25:18 GMT 46.033787 39.696556 28,375 19 476 1728
2020-03-26 11:25:11 GMT 46.019402 39.689346 28,175 19 475 1728
2020-03-26 11:25:08 GMT 46.012791 39.686050 28,075 19 474 1728
2020-03-26 11:25:00 GMT 45.989960 39.674644 27,825 19 471 1728
2020-03-26 11:24:57 GMT 45.989960 39.674644 27,775 19 471 1728
2020-03-26 11:24:48 GMT 45.972519 39.665936 27,525 19 468 1728
2020-03-26 11:24:45 GMT 45.963211 39.661263 27,400 19 467 1728
2020-03-26 11:24:40 GMT 45.955669 39.657486 27,275 19 466 1664
2020-03-26 11:24:37 GMT 45.950684 39.655018 27,200 19 465 1664
2020-03-26 11:24:34 GMT 45.944733 39.651993 27,200 19 465 1664
2020-03-26 11:24:30 GMT 45.935421 39.647324 27,000 19 462 1792
2020-03-26 11:24:27 GMT 45.929260 39.644234 26,900 19 461 1792
2020-03-26 11:24:23 GMT 45.920609 39.639877 26,775 19 459 1664
2020-03-26 11:24:18 GMT 45.910282 39.634758 26,650 19 457 1536
2020-03-26 11:24:14 GMT 45.902695 39.630913 26,550 19 455 1728
2020-03-26 11:24:09 GMT 45.894196 39.626747 26,425 19 454 1856
2020-03-26 11:24:05 GMT 45.883118 39.621189 26,250 19 453 1728
2020-03-26 11:23:59 GMT 45.873825 39.616566 26,100 19 450 1728
2020-03-26 11:23:54 GMT 45.862335 39.610863 25,925 19 448 2048
2020-03-26 11:23:47 GMT 45.849106 39.604240 25,675 19 446 2112
2020-03-26 11:23:44 GMT 45.844070 39.601761 25,600 19 446 2112
2020-03-26 11:23:39 GMT 45.834400 39.596924 25,425 19 444 1920
2020-03-26 11:23:36 GMT 45.828583 39.594040 25,325 19 443 1984
2020-03-26 11:23:26 GMT 45.808182 39.583942 24,975 19 440 2176
2020-03-26 11:23:23 GMT 45.801582 39.580650 24,850 19 439 2176
2020-03-26 11:23:18 GMT 45.794086 39.576874 24,700 19 438 2048
2020-03-26 11:23:13 GMT 45.784607 39.572220 24,550 19 436 1984
2020-03-26 11:23:08 GMT 45.774719 39.567261 24,375 19 434 2112
2020-03-26 11:23:05 GMT 45.768860 39.564381 24,250 19 432 2112
2020-03-26 11:22:58 GMT 45.755730 39.557854 24,000 19 430 2176
2020-03-26 11:22:55 GMT 45.749817 39.554867 23,900 19 429 2176
2020-03-26 11:22:52 GMT 45.743160 39.551605 23,775 19 426 2176
2020-03-26 11:22:45 GMT 45.730637 39.545425 23,525 19 425 2176
2020-03-26 11:22:37 GMT 45.717278 39.538834 23,250 19 423 2496
2020-03-26 11:22:33 GMT 45.710621 39.535538 23,100 19 422 2496
2020-03-26 11:22:27 GMT 45.698795 39.529701 22,825 19 419 2432
2020-03-26 11:22:24 GMT 45.692459 39.526600 22,700 19 419 2496
2020-03-26 11:22:14 GMT 45.673279 39.517151 22,225 19 416 2560
2020-03-26 11:22:06 GMT 45.661182 39.511230 21,975 18 413 2368
2020-03-26 11:22:03 GMT 45.654339 39.507866 21,800 18 412 2624
2020-03-26 11:21:56 GMT 45.642883 39.502213 21,525 19 410 2752
2020-03-26 11:21:53 GMT 45.636322 39.499008 21,350 18 409 2688
2020-03-26 11:21:46 GMT 45.623932 39.492901 21,050 18 407 2752
2020-03-26 11:21:42 GMT 45.617748 39.489944 20,925 18 407 2880
2020-03-26 11:21:33 GMT 45.599213 39.480843 20,350 19 404 2880
2020-03-26 11:21:25 GMT 45.587860 39.475250 20,050 19 401 2880
2020-03-26 11:21:21 GMT 45.581017 39.471886 19,850 19 401 2944
2020-03-26 11:21:14 GMT 45.567764 39.465370 19,475 18 399 3008
2020-03-26 11:21:11 GMT 45.563232 39.463158 19,350 18 398 3008
2020-03-26 11:21:05 GMT 45.552341 39.457878 19,050 18 396 2560
2020-03-26 11:21:02 GMT 45.545265 39.454384 18,875 18 393 2624
2020-03-26 11:20:53 GMT 45.529724 39.446739 18,450 18 391 2944
2020-03-26 11:20:45 GMT 45.517456 39.440723 18,125 19 386 2624
2020-03-26 11:20:41 GMT 45.509171 39.436668 17,925 19 383 2944
2020-03-26 11:20:34 GMT 45.499226 39.431740 17,600 19 382 3264
2020-03-26 11:20:30 GMT 45.491272 39.427837 17,350 19 381 3200
2020-03-26 11:20:23 GMT 45.482048 39.423302 17,075 19 378 2944
2020-03-26 11:20:19 GMT 45.474785 39.419750 16,850 19 376 3264
2020-03-26 11:20:14 GMT 45.465637 39.415218 16,525 19 375 3584
2020-03-26 11:20:09 GMT 45.457443 39.411163 16,225 19 374 3584
2020-03-26 11:20:02 GMT 45.445087 39.405079 15,775 19 373 3520
2020-03-26 11:19:58 GMT 45.440231 39.402725 15,600 19 373 3584
2020-03-26 11:19:49 GMT 45.423717 39.394627 15,025 18 369 3200
2020-03-26 11:19:41 GMT 45.411896 39.388863 14,625 18 366 3456
2020-03-26 11:19:38 GMT 45.407547 39.386772 14,450 18 365 3392
2020-03-26 11:19:28 GMT 45.391041 39.378685 13,900 19 361 3328
2020-03-26 11:19:20 GMT 45.379257 39.372906 13,450 19 359 3648
2020-03-26 11:19:17 GMT 45.374405 39.370552 13,275 19 358 3776
2020-03-26 11:19:11 GMT 45.363419 39.365124 12,850 19 358 3072
2020-03-26 11:19:07 GMT 45.357925 39.362377 12,700 19 355 2368
2020-03-26 11:19:00 GMT 45.348038 39.357475 12,450 19 349 2304
2020-03-26 11:18:56 GMT 45.342087 39.354530 12,300 19 346 2176
2020-03-26 11:18:50 GMT 45.332802 39.349945 12,075 19 341 2240
2020-03-26 11:18:46 GMT 45.326286 39.346664 11,925 19 336 2240
2020-03-26 11:18:40 GMT 45.317207 39.342243 11,700 19 330 2176
2020-03-26 11:18:35 GMT 45.310455 39.338902 11,525 18 326 2240
2020-03-26 11:18:29 GMT 45.302399 39.334976 11,300 18 320 2176
2020-03-26 11:18:26 GMT 45.297363 39.332558 11,175 18 313 2176
2020-03-26 11:18:18 GMT 45.286018 39.327034 10,875 18 309 2176
2020-03-26 11:18:15 GMT 45.282578 39.325363 10,800 18 304 2176
2020-03-26 11:18:09 GMT 45.274799 39.321674 10,575 18 298 2304
2020-03-26 11:18:04 GMT 45.268654 39.318729 10,375 18 294 2560
2020-03-26 11:17:59 GMT 45.261795 39.315361 10,150 18 290 2816
2020-03-26 11:17:55 GMT 45.256165 39.312679 9,925 18 288 3200
2020-03-26 11:17:48 GMT 45.248543 39.308949 9,600 18 287 3136
2020-03-26 11:17:44 GMT 45.243237 39.306400 9,375 18 286 3136
2020-03-26 11:17:39 GMT 45.236252 39.302986 9,075 18 284 3200
2020-03-26 11:17:33 GMT 45.229706 39.299797 8,825 18 282 3008
2020-03-26 11:17:29 GMT 45.223206 39.296658 8,550 18 280 3072
2020-03-26 11:17:23 GMT 45.217491 39.293877 8,300 19 278 3328
2020-03-26 11:17:18 GMT 45.211121 39.290771 8,000 19 277 3136
2020-03-26 11:17:14 GMT 45.204643 39.287579 7,750 19 275 2816
2020-03-26 11:17:08 GMT 45.198498 39.284496 7,500 19 272 2752
2020-03-26 11:17:03 GMT 45.192673 39.281551 7,300 19 267 2176

Making use of Plane Finder data

You are free to use the raw flight data, aircraft information and images provided in this report for your own purposes provided the data is correctly attributed to Plane Finder. We ask that you please credit Plane Finder and link to planefinder.net in close proximity to the content.

Optionally one of the following logos (no smaller then 150x24px) can be used and must link to planefinder.net

Embedding the Plane Finder map

You are welcome to embed the Plane Finder playback map on your website to offer visitors a more interactive experience. We suggest using the following HTML code:

<iframe src="//planefinder.net/data/report/SU1103-VQ-BVP-7700-squawk-2020-03-26/map" width="800" height="600" seamless="seamless"></iframe>

Where our data comes from

Plane Finder has a global network of data feeds and antenna radars that receive data broadcast directly from aircraft. The primary technologies used are ADS-B and MLAT. We also show feeds from the FAA and a FLARM glider feed.

Click here to find out more about the Plane Finder network.

How we collect our data